<?xml version="1.0" encoding="UTF-8" standalone="no" ?>
<gpx xmlns="http://www.topografix.com/GPX/1/1" xmlns:xsi="http://www.w3.org/2001/XMLSchema-instance" xsi:schemaLocation="http://www.topografix.com/GPX/1/1 http://www.topografix.com/GPX/1/1/gpx.xsd" version="1.1" creator="VisuGPX - https://www.visugpx.com">
  <metadata>
    <name>LES 5 CHATEAUX ET ET LES HERBES DE CHAUDRY</name>
  </metadata>
  <trk>
    <name><![CDATA[LES CINQ CHATEAUX ET LES HERBES DE CHAUDRY-17987041]]></name>
    <trkseg>
      <trkpt lat="49.09993" lon="1.77588">
        <ele>168</ele>
        <time>2024-10-25T07:56:21Z</time>
      </trkpt>
      <trkpt lat="49.09982" lon="1.77586">
        <ele>168</ele>
        <time>2024-10-25T07:56:36Z</time>
      </trkpt>
      <trkpt lat="49.09972" lon="1.77593">
        <ele>169</ele>
        <time>2024-10-25T07:56:50Z</time>
      </trkpt>
      <trkpt lat="49.0998" lon="1.77605">
        <ele>168</ele>
        <time>2024-10-25T07:57:05Z</time>
      </trkpt>
      <trkpt lat="49.09979" lon="1.77628">
        <ele>168</ele>
        <time>2024-10-25T07:57:26Z</time>
      </trkpt>
      <trkpt lat="49.09954" lon="1.77789">
        <ele>163</ele>
        <time>2024-10-25T07:59:50Z</time>
      </trkpt>
      <trkpt lat="49.09955" lon="1.77804">
        <ele>163</ele>
        <time>2024-10-25T08:00:03Z</time>
      </trkpt>
      <trkpt lat="49.09953" lon="1.77813">
        <ele>162</ele>
        <time>2024-10-25T08:00:12Z</time>
      </trkpt>
      <trkpt lat="49.09947" lon="1.77815">
        <ele>163</ele>
        <time>2024-10-25T08:00:20Z</time>
      </trkpt>
      <trkpt lat="49.09915" lon="1.77848">
        <ele>162</ele>
        <time>2024-10-25T08:01:11Z</time>
      </trkpt>
      <trkpt lat="49.09902" lon="1.77864">
        <ele>161</ele>
        <time>2024-10-25T08:01:34Z</time>
      </trkpt>
      <trkpt lat="49.09892" lon="1.77886">
        <ele>160</ele>
        <time>2024-10-25T08:01:57Z</time>
      </trkpt>
      <trkpt lat="49.09888" lon="1.77908">
        <ele>159</ele>
        <time>2024-10-25T08:02:17Z</time>
      </trkpt>
      <trkpt lat="49.09874" lon="1.78055">
        <ele>152</ele>
        <time>2024-10-25T08:04:27Z</time>
      </trkpt>
      <trkpt lat="49.0987" lon="1.78147">
        <ele>149</ele>
        <time>2024-10-25T08:05:47Z</time>
      </trkpt>
      <trkpt lat="49.09863" lon="1.78233">
        <ele>146</ele>
        <time>2024-10-25T08:07:03Z</time>
      </trkpt>
      <trkpt lat="49.09847" lon="1.78311">
        <ele>144</ele>
        <time>2024-10-25T08:08:14Z</time>
      </trkpt>
      <trkpt lat="49.09812" lon="1.78441">
        <ele>141</ele>
        <time>2024-10-25T08:10:17Z</time>
      </trkpt>
      <trkpt lat="49.09801" lon="1.78496">
        <ele>141</ele>
        <time>2024-10-25T08:11:08Z</time>
      </trkpt>
      <trkpt lat="49.09797" lon="1.78521">
        <ele>141</ele>
        <time>2024-10-25T08:11:30Z</time>
      </trkpt>
      <trkpt lat="49.0979" lon="1.78618">
        <ele>142</ele>
        <time>2024-10-25T08:12:55Z</time>
      </trkpt>
      <trkpt lat="49.09759" lon="1.78648">
        <ele>143</ele>
        <time>2024-10-25T08:13:44Z</time>
      </trkpt>
      <trkpt lat="49.0972" lon="1.78692">
        <ele>147</ele>
        <time>2024-10-25T08:14:49Z</time>
      </trkpt>
      <trkpt lat="49.09693" lon="1.78717">
        <ele>149</ele>
        <time>2024-10-25T08:15:31Z</time>
      </trkpt>
      <trkpt lat="49.09672" lon="1.78729">
        <ele>151</ele>
        <time>2024-10-25T08:16:01Z</time>
      </trkpt>
      <trkpt lat="49.09564" lon="1.7875">
        <ele>162</ele>
        <time>2024-10-25T08:18:26Z</time>
      </trkpt>
      <trkpt lat="49.09549" lon="1.78756">
        <ele>163</ele>
        <time>2024-10-25T08:18:47Z</time>
      </trkpt>
      <trkpt lat="49.09521" lon="1.78771">
        <ele>165</ele>
        <time>2024-10-25T08:19:27Z</time>
      </trkpt>
      <trkpt lat="49.09509" lon="1.78783">
        <ele>166</ele>
        <time>2024-10-25T08:19:46Z</time>
      </trkpt>
      <trkpt lat="49.09498" lon="1.78791">
        <ele>167</ele>
        <time>2024-10-25T08:20:02Z</time>
      </trkpt>
      <trkpt lat="49.09486" lon="1.78796">
        <ele>167</ele>
        <time>2024-10-25T08:20:19Z</time>
      </trkpt>
      <trkpt lat="49.09476" lon="1.78806">
        <ele>168</ele>
        <time>2024-10-25T08:20:35Z</time>
      </trkpt>
      <trkpt lat="49.09443" lon="1.78863">
        <ele>170</ele>
        <time>2024-10-25T08:21:41Z</time>
      </trkpt>
      <trkpt lat="49.09405" lon="1.78968">
        <ele>174</ele>
        <time>2024-10-25T08:23:26Z</time>
      </trkpt>
      <trkpt lat="49.09389" lon="1.78972">
        <ele>176</ele>
        <time>2024-10-25T08:23:47Z</time>
      </trkpt>
      <trkpt lat="49.09375" lon="1.78971">
        <ele>178</ele>
        <time>2024-10-25T08:24:06Z</time>
      </trkpt>
      <trkpt lat="49.09372" lon="1.78979">
        <ele>178</ele>
        <time>2024-10-25T08:24:14Z</time>
      </trkpt>
      <trkpt lat="49.09369" lon="1.78971">
        <ele>178</ele>
        <time>2024-10-25T08:24:22Z</time>
      </trkpt>
      <trkpt lat="49.09362" lon="1.78967">
        <ele>179</ele>
        <time>2024-10-25T08:24:32Z</time>
      </trkpt>
      <trkpt lat="49.09354" lon="1.78971">
        <ele>180</ele>
        <time>2024-10-25T08:24:44Z</time>
      </trkpt>
      <trkpt lat="49.09352" lon="1.78978">
        <ele>181</ele>
        <time>2024-10-25T08:24:50Z</time>
      </trkpt>
      <trkpt lat="49.0934" lon="1.78971">
        <ele>182</ele>
        <time>2024-10-25T08:25:07Z</time>
      </trkpt>
      <trkpt lat="49.09333" lon="1.78975">
        <ele>183</ele>
        <time>2024-10-25T08:25:17Z</time>
      </trkpt>
      <trkpt lat="49.09318" lon="1.78991">
        <ele>186</ele>
        <time>2024-10-25T08:25:42Z</time>
      </trkpt>
      <trkpt lat="49.09317" lon="1.79019">
        <ele>186</ele>
        <time>2024-10-25T08:26:06Z</time>
      </trkpt>
      <trkpt lat="49.09307" lon="1.79104">
        <ele>186</ele>
        <time>2024-10-25T08:27:22Z</time>
      </trkpt>
      <trkpt lat="49.09301" lon="1.79122">
        <ele>187</ele>
        <time>2024-10-25T08:27:39Z</time>
      </trkpt>
      <trkpt lat="49.09292" lon="1.79132">
        <ele>188</ele>
        <time>2024-10-25T08:27:54Z</time>
      </trkpt>
      <trkpt lat="49.09281" lon="1.79164">
        <ele>189</ele>
        <time>2024-10-25T08:28:26Z</time>
      </trkpt>
      <trkpt lat="49.09278" lon="1.79191">
        <ele>189</ele>
        <time>2024-10-25T08:28:50Z</time>
      </trkpt>
      <trkpt lat="49.09273" lon="1.79202">
        <ele>189</ele>
        <time>2024-10-25T08:29:01Z</time>
      </trkpt>
      <trkpt lat="49.09271" lon="1.79222">
        <ele>189</ele>
        <time>2024-10-25T08:29:19Z</time>
      </trkpt>
      <trkpt lat="49.09251" lon="1.79246">
        <ele>191</ele>
        <time>2024-10-25T08:29:53Z</time>
      </trkpt>
      <trkpt lat="49.0923" lon="1.7926">
        <ele>192</ele>
        <time>2024-10-25T08:30:24Z</time>
      </trkpt>
      <trkpt lat="49.09209" lon="1.79283">
        <ele>191</ele>
        <time>2024-10-25T08:30:58Z</time>
      </trkpt>
      <trkpt lat="49.0921" lon="1.79279">
        <ele>191</ele>
        <time>2024-10-25T08:31:02Z</time>
      </trkpt>
      <trkpt lat="49.09211" lon="1.79285">
        <ele>191</ele>
        <time>2024-10-25T08:31:07Z</time>
      </trkpt>
      <trkpt lat="49.09216" lon="1.79288">
        <ele>190</ele>
        <time>2024-10-25T08:31:14Z</time>
      </trkpt>
      <trkpt lat="49.09209" lon="1.79291">
        <ele>190</ele>
        <time>2024-10-25T08:31:24Z</time>
      </trkpt>
      <trkpt lat="49.09211" lon="1.79292">
        <ele>190</ele>
        <time>2024-10-25T08:31:27Z</time>
      </trkpt>
      <trkpt lat="49.09185" lon="1.79273">
        <ele>193</ele>
        <time>2024-10-25T08:32:05Z</time>
      </trkpt>
      <trkpt lat="49.0917" lon="1.79258">
        <ele>196</ele>
        <time>2024-10-25T08:32:29Z</time>
      </trkpt>
      <trkpt lat="49.09157" lon="1.79253">
        <ele>196</ele>
        <time>2024-10-25T08:32:47Z</time>
      </trkpt>
      <trkpt lat="49.09111" lon="1.792">
        <ele>195</ele>
        <time>2024-10-25T08:34:04Z</time>
      </trkpt>
      <trkpt lat="49.09104" lon="1.79184">
        <ele>196</ele>
        <time>2024-10-25T08:34:21Z</time>
      </trkpt>
      <trkpt lat="49.09097" lon="1.7916">
        <ele>197</ele>
        <time>2024-10-25T08:34:44Z</time>
      </trkpt>
      <trkpt lat="49.09089" lon="1.79065">
        <ele>199</ele>
        <time>2024-10-25T08:36:08Z</time>
      </trkpt>
      <trkpt lat="49.09074" lon="1.7896">
        <ele>199</ele>
        <time>2024-10-25T08:37:41Z</time>
      </trkpt>
      <trkpt lat="49.09067" lon="1.78888">
        <ele>200</ele>
        <time>2024-10-25T08:38:45Z</time>
      </trkpt>
      <trkpt lat="49.09069" lon="1.78862">
        <ele>201</ele>
        <time>2024-10-25T08:39:08Z</time>
      </trkpt>
      <trkpt lat="49.09062" lon="1.78827">
        <ele>201</ele>
        <time>2024-10-25T08:39:40Z</time>
      </trkpt>
      <trkpt lat="49.09059" lon="1.78787">
        <ele>203</ele>
        <time>2024-10-25T08:40:15Z</time>
      </trkpt>
      <trkpt lat="49.09052" lon="1.78752">
        <ele>205</ele>
        <time>2024-10-25T08:40:47Z</time>
      </trkpt>
      <trkpt lat="49.0905" lon="1.78726">
        <ele>205</ele>
        <time>2024-10-25T08:41:10Z</time>
      </trkpt>
      <trkpt lat="49.09051" lon="1.78697">
        <ele>206</ele>
        <time>2024-10-25T08:41:35Z</time>
      </trkpt>
      <trkpt lat="49.09044" lon="1.78641">
        <ele>207</ele>
        <time>2024-10-25T08:42:25Z</time>
      </trkpt>
      <trkpt lat="49.09045" lon="1.7862">
        <ele>207</ele>
        <time>2024-10-25T08:42:44Z</time>
      </trkpt>
      <trkpt lat="49.09041" lon="1.78589">
        <ele>206</ele>
        <time>2024-10-25T08:43:11Z</time>
      </trkpt>
      <trkpt lat="49.09041" lon="1.78562">
        <ele>207</ele>
        <time>2024-10-25T08:43:35Z</time>
      </trkpt>
      <trkpt lat="49.09032" lon="1.78508">
        <ele>207</ele>
        <time>2024-10-25T08:44:24Z</time>
      </trkpt>
      <trkpt lat="49.09033" lon="1.78446">
        <ele>206</ele>
        <time>2024-10-25T08:45:18Z</time>
      </trkpt>
      <trkpt lat="49.09028" lon="1.78413">
        <ele>205</ele>
        <time>2024-10-25T08:45:47Z</time>
      </trkpt>
      <trkpt lat="49.09025" lon="1.78359">
        <ele>206</ele>
        <time>2024-10-25T08:46:35Z</time>
      </trkpt>
      <trkpt lat="49.09014" lon="1.78317">
        <ele>206</ele>
        <time>2024-10-25T08:47:14Z</time>
      </trkpt>
      <trkpt lat="49.09015" lon="1.78229">
        <ele>206</ele>
        <time>2024-10-25T08:48:31Z</time>
      </trkpt>
      <trkpt lat="49.09003" lon="1.78189">
        <ele>207</ele>
        <time>2024-10-25T08:49:10Z</time>
      </trkpt>
      <trkpt lat="49.08998" lon="1.78162">
        <ele>208</ele>
        <time>2024-10-25T08:49:34Z</time>
      </trkpt>
      <trkpt lat="49.08998" lon="1.78077">
        <ele>208</ele>
        <time>2024-10-25T08:50:48Z</time>
      </trkpt>
      <trkpt lat="49.08995" lon="1.78041">
        <ele>208</ele>
        <time>2024-10-25T08:51:20Z</time>
      </trkpt>
      <trkpt lat="49.08998" lon="1.7803">
        <ele>208</ele>
        <time>2024-10-25T08:51:30Z</time>
      </trkpt>
      <trkpt lat="49.08999" lon="1.78003">
        <ele>208</ele>
        <time>2024-10-25T08:51:54Z</time>
      </trkpt>
      <trkpt lat="49.08995" lon="1.77974">
        <ele>207</ele>
        <time>2024-10-25T08:52:20Z</time>
      </trkpt>
      <trkpt lat="49.09" lon="1.77956">
        <ele>207</ele>
        <time>2024-10-25T08:52:37Z</time>
      </trkpt>
      <trkpt lat="49.08999" lon="1.77947">
        <ele>207</ele>
        <time>2024-10-25T08:52:45Z</time>
      </trkpt>
      <trkpt lat="49.09002" lon="1.77942">
        <ele>207</ele>
        <time>2024-10-25T08:52:51Z</time>
      </trkpt>
      <trkpt lat="49.09" lon="1.77907">
        <ele>206</ele>
        <time>2024-10-25T08:53:22Z</time>
      </trkpt>
      <trkpt lat="49.08995" lon="1.77884">
        <ele>206</ele>
        <time>2024-10-25T08:53:43Z</time>
      </trkpt>
      <trkpt lat="49.08993" lon="1.77847">
        <ele>205</ele>
        <time>2024-10-25T08:54:15Z</time>
      </trkpt>
      <trkpt lat="49.08981" lon="1.77752">
        <ele>205</ele>
        <time>2024-10-25T08:55:40Z</time>
      </trkpt>
      <trkpt lat="49.08984" lon="1.77736">
        <ele>205</ele>
        <time>2024-10-25T08:55:54Z</time>
      </trkpt>
      <trkpt lat="49.08977" lon="1.77713">
        <ele>204</ele>
        <time>2024-10-25T08:56:17Z</time>
      </trkpt>
      <trkpt lat="49.08978" lon="1.77678">
        <ele>203</ele>
        <time>2024-10-25T08:56:47Z</time>
      </trkpt>
      <trkpt lat="49.08984" lon="1.77642">
        <ele>202</ele>
        <time>2024-10-25T08:57:20Z</time>
      </trkpt>
      <trkpt lat="49.08988" lon="1.77636">
        <ele>202</ele>
        <time>2024-10-25T08:57:27Z</time>
      </trkpt>
      <trkpt lat="49.08991" lon="1.77544">
        <ele>201</ele>
        <time>2024-10-25T08:58:48Z</time>
      </trkpt>
      <trkpt lat="49.08988" lon="1.77507">
        <ele>200</ele>
        <time>2024-10-25T08:59:20Z</time>
      </trkpt>
      <trkpt lat="49.08994" lon="1.77491">
        <ele>200</ele>
        <time>2024-10-25T08:59:36Z</time>
      </trkpt>
      <trkpt lat="49.08993" lon="1.77482">
        <ele>201</ele>
        <time>2024-10-25T08:59:44Z</time>
      </trkpt>
      <trkpt lat="49.08997" lon="1.77453">
        <ele>202</ele>
        <time>2024-10-25T09:00:10Z</time>
      </trkpt>
      <trkpt lat="49.09004" lon="1.77441">
        <ele>202</ele>
        <time>2024-10-25T09:00:24Z</time>
      </trkpt>
      <trkpt lat="49.09007" lon="1.7741">
        <ele>203</ele>
        <time>2024-10-25T09:00:52Z</time>
      </trkpt>
      <trkpt lat="49.09002" lon="1.774">
        <ele>203</ele>
        <time>2024-10-25T09:01:03Z</time>
      </trkpt>
      <trkpt lat="49.08981" lon="1.77331">
        <ele>204</ele>
        <time>2024-10-25T09:02:09Z</time>
      </trkpt>
      <trkpt lat="49.08978" lon="1.77284">
        <ele>203</ele>
        <time>2024-10-25T09:02:50Z</time>
      </trkpt>
      <trkpt lat="49.08962" lon="1.77276">
        <ele>203</ele>
        <time>2024-10-25T09:03:13Z</time>
      </trkpt>
      <trkpt lat="49.08937" lon="1.77271">
        <ele>204</ele>
        <time>2024-10-25T09:03:47Z</time>
      </trkpt>
      <trkpt lat="49.08931" lon="1.77272">
        <ele>204</ele>
        <time>2024-10-25T09:03:55Z</time>
      </trkpt>
      <trkpt lat="49.08916" lon="1.77264">
        <ele>204</ele>
        <time>2024-10-25T09:04:16Z</time>
      </trkpt>
      <trkpt lat="49.08898" lon="1.77248">
        <ele>203</ele>
        <time>2024-10-25T09:04:44Z</time>
      </trkpt>
      <trkpt lat="49.0887" lon="1.77186">
        <ele>202</ele>
        <time>2024-10-25T09:05:49Z</time>
      </trkpt>
      <trkpt lat="49.08859" lon="1.77179">
        <ele>202</ele>
        <time>2024-10-25T09:06:05Z</time>
      </trkpt>
      <trkpt lat="49.08857" lon="1.77174">
        <ele>202</ele>
        <time>2024-10-25T09:06:10Z</time>
      </trkpt>
      <trkpt lat="49.08851" lon="1.7717">
        <ele>202</ele>
        <time>2024-10-25T09:06:19Z</time>
      </trkpt>
      <trkpt lat="49.08856" lon="1.7717">
        <ele>202</ele>
        <time>2024-10-25T09:06:26Z</time>
      </trkpt>
      <trkpt lat="49.08857" lon="1.77163">
        <ele>202</ele>
        <time>2024-10-25T09:06:32Z</time>
      </trkpt>
      <trkpt lat="49.08845" lon="1.77164">
        <ele>202</ele>
        <time>2024-10-25T09:06:48Z</time>
      </trkpt>
      <trkpt lat="49.0885" lon="1.77171">
        <ele>202</ele>
        <time>2024-10-25T09:06:57Z</time>
      </trkpt>
      <trkpt lat="49.08851" lon="1.77168">
        <ele>202</ele>
        <time>2024-10-25T09:07:00Z</time>
      </trkpt>
      <trkpt lat="49.08854" lon="1.77168">
        <ele>202</ele>
        <time>2024-10-25T09:07:04Z</time>
      </trkpt>
      <trkpt lat="49.08852" lon="1.77158">
        <ele>202</ele>
        <time>2024-10-25T09:07:13Z</time>
      </trkpt>
      <trkpt lat="49.08855" lon="1.77158">
        <ele>202</ele>
        <time>2024-10-25T09:07:17Z</time>
      </trkpt>
      <trkpt lat="49.08857" lon="1.77155">
        <ele>203</ele>
        <time>2024-10-25T09:07:21Z</time>
      </trkpt>
      <trkpt lat="49.08855" lon="1.77145">
        <ele>203</ele>
        <time>2024-10-25T09:07:30Z</time>
      </trkpt>
      <trkpt lat="49.08836" lon="1.77099">
        <ele>204</ele>
        <time>2024-10-25T09:08:18Z</time>
      </trkpt>
      <trkpt lat="49.08818" lon="1.77066">
        <ele>204</ele>
        <time>2024-10-25T09:08:55Z</time>
      </trkpt>
      <trkpt lat="49.08795" lon="1.77038">
        <ele>204</ele>
        <time>2024-10-25T09:09:34Z</time>
      </trkpt>
      <trkpt lat="49.08781" lon="1.77013">
        <ele>205</ele>
        <time>2024-10-25T09:10:03Z</time>
      </trkpt>
      <trkpt lat="49.0877" lon="1.76974">
        <ele>204</ele>
        <time>2024-10-25T09:10:40Z</time>
      </trkpt>
      <trkpt lat="49.0872" lon="1.76874">
        <ele>204</ele>
        <time>2024-10-25T09:12:30Z</time>
      </trkpt>
      <trkpt lat="49.08712" lon="1.76848">
        <ele>204</ele>
        <time>2024-10-25T09:12:55Z</time>
      </trkpt>
      <trkpt lat="49.0871" lon="1.7682">
        <ele>204</ele>
        <time>2024-10-25T09:13:20Z</time>
      </trkpt>
      <trkpt lat="49.08713" lon="1.76772">
        <ele>204</ele>
        <time>2024-10-25T09:14:02Z</time>
      </trkpt>
      <trkpt lat="49.08712" lon="1.76718">
        <ele>204</ele>
        <time>2024-10-25T09:14:49Z</time>
      </trkpt>
      <trkpt lat="49.08719" lon="1.76685">
        <ele>203</ele>
        <time>2024-10-25T09:15:20Z</time>
      </trkpt>
      <trkpt lat="49.0872" lon="1.76648">
        <ele>203</ele>
        <time>2024-10-25T09:15:52Z</time>
      </trkpt>
      <trkpt lat="49.08718" lon="1.76638">
        <ele>204</ele>
        <time>2024-10-25T09:16:01Z</time>
      </trkpt>
      <trkpt lat="49.08723" lon="1.76558">
        <ele>204</ele>
        <time>2024-10-25T09:17:11Z</time>
      </trkpt>
      <trkpt lat="49.08713" lon="1.76503">
        <ele>204</ele>
        <time>2024-10-25T09:18:01Z</time>
      </trkpt>
      <trkpt lat="49.08693" lon="1.76447">
        <ele>204</ele>
        <time>2024-10-25T09:18:57Z</time>
      </trkpt>
      <trkpt lat="49.08684" lon="1.764">
        <ele>204</ele>
        <time>2024-10-25T09:19:40Z</time>
      </trkpt>
      <trkpt lat="49.08684" lon="1.76384">
        <ele>204</ele>
        <time>2024-10-25T09:19:54Z</time>
      </trkpt>
      <trkpt lat="49.08681" lon="1.76376">
        <ele>205</ele>
        <time>2024-10-25T09:20:02Z</time>
      </trkpt>
      <trkpt lat="49.08683" lon="1.76362">
        <ele>205</ele>
        <time>2024-10-25T09:20:14Z</time>
      </trkpt>
      <trkpt lat="49.08682" lon="1.76347">
        <ele>206</ele>
        <time>2024-10-25T09:20:28Z</time>
      </trkpt>
      <trkpt lat="49.08685" lon="1.76334">
        <ele>206</ele>
        <time>2024-10-25T09:20:40Z</time>
      </trkpt>
      <trkpt lat="49.08682" lon="1.76336">
        <ele>206</ele>
        <time>2024-10-25T09:20:44Z</time>
      </trkpt>
      <trkpt lat="49.08672" lon="1.76327">
        <ele>207</ele>
        <time>2024-10-25T09:20:59Z</time>
      </trkpt>
      <trkpt lat="49.08676" lon="1.76329">
        <ele>206</ele>
        <time>2024-10-25T09:21:05Z</time>
      </trkpt>
      <trkpt lat="49.08681" lon="1.76314">
        <ele>206</ele>
        <time>2024-10-25T09:21:20Z</time>
      </trkpt>
      <trkpt lat="49.08686" lon="1.76292">
        <ele>206</ele>
        <time>2024-10-25T09:21:40Z</time>
      </trkpt>
      <trkpt lat="49.08684" lon="1.76276">
        <ele>206</ele>
        <time>2024-10-25T09:21:54Z</time>
      </trkpt>
      <trkpt lat="49.08692" lon="1.7626">
        <ele>205</ele>
        <time>2024-10-25T09:22:12Z</time>
      </trkpt>
      <trkpt lat="49.08705" lon="1.76214">
        <ele>205</ele>
        <time>2024-10-25T09:22:56Z</time>
      </trkpt>
      <trkpt lat="49.0871" lon="1.76176">
        <ele>205</ele>
        <time>2024-10-25T09:23:30Z</time>
      </trkpt>
      <trkpt lat="49.08713" lon="1.76161">
        <ele>205</ele>
        <time>2024-10-25T09:23:43Z</time>
      </trkpt>
      <trkpt lat="49.08718" lon="1.7615">
        <ele>205</ele>
        <time>2024-10-25T09:23:55Z</time>
      </trkpt>
      <trkpt lat="49.08724" lon="1.76119">
        <ele>206</ele>
        <time>2024-10-25T09:24:23Z</time>
      </trkpt>
      <trkpt lat="49.08751" lon="1.76062">
        <ele>207</ele>
        <time>2024-10-25T09:25:25Z</time>
      </trkpt>
      <trkpt lat="49.08758" lon="1.76058">
        <ele>208</ele>
        <time>2024-10-25T09:25:35Z</time>
      </trkpt>
      <trkpt lat="49.08783" lon="1.76052">
        <ele>208</ele>
        <time>2024-10-25T09:26:09Z</time>
      </trkpt>
      <trkpt lat="49.08798" lon="1.76056">
        <ele>208</ele>
        <time>2024-10-25T09:26:29Z</time>
      </trkpt>
      <trkpt lat="49.08841" lon="1.76078">
        <ele>208</ele>
        <time>2024-10-25T09:27:29Z</time>
      </trkpt>
      <trkpt lat="49.08894" lon="1.76088">
        <ele>210</ele>
        <time>2024-10-25T09:28:41Z</time>
      </trkpt>
      <trkpt lat="49.0891" lon="1.76088">
        <ele>211</ele>
        <time>2024-10-25T09:29:02Z</time>
      </trkpt>
      <trkpt lat="49.08929" lon="1.76092">
        <ele>211</ele>
        <time>2024-10-25T09:29:28Z</time>
      </trkpt>
      <trkpt lat="49.08943" lon="1.7609">
        <ele>211</ele>
        <time>2024-10-25T09:29:46Z</time>
      </trkpt>
      <trkpt lat="49.0896" lon="1.76093">
        <ele>211</ele>
        <time>2024-10-25T09:30:09Z</time>
      </trkpt>
      <trkpt lat="49.0898" lon="1.76099">
        <ele>211</ele>
        <time>2024-10-25T09:30:36Z</time>
      </trkpt>
      <trkpt lat="49.08997" lon="1.76109">
        <ele>210</ele>
        <time>2024-10-25T09:31:01Z</time>
      </trkpt>
      <trkpt lat="49.09016" lon="1.76112">
        <ele>210</ele>
        <time>2024-10-25T09:31:26Z</time>
      </trkpt>
      <trkpt lat="49.09024" lon="1.76113">
        <ele>210</ele>
        <time>2024-10-25T09:31:37Z</time>
      </trkpt>
      <trkpt lat="49.09051" lon="1.761">
        <ele>210</ele>
        <time>2024-10-25T09:32:15Z</time>
      </trkpt>
      <trkpt lat="49.09045" lon="1.76095">
        <ele>210</ele>
        <time>2024-10-25T09:32:24Z</time>
      </trkpt>
      <trkpt lat="49.09044" lon="1.76052">
        <ele>212</ele>
        <time>2024-10-25T09:33:01Z</time>
      </trkpt>
      <trkpt lat="49.09041" lon="1.76039">
        <ele>212</ele>
        <time>2024-10-25T09:33:13Z</time>
      </trkpt>
      <trkpt lat="49.09044" lon="1.76027">
        <ele>212</ele>
        <time>2024-10-25T09:33:25Z</time>
      </trkpt>
      <trkpt lat="49.09044" lon="1.76">
        <ele>212</ele>
        <time>2024-10-25T09:33:48Z</time>
      </trkpt>
      <trkpt lat="49.09038" lon="1.75931">
        <ele>213</ele>
        <time>2024-10-25T09:34:49Z</time>
      </trkpt>
      <trkpt lat="49.09031" lon="1.75903">
        <ele>213</ele>
        <time>2024-10-25T09:35:15Z</time>
      </trkpt>
      <trkpt lat="49.09017" lon="1.75789">
        <ele>214</ele>
        <time>2024-10-25T09:36:57Z</time>
      </trkpt>
      <trkpt lat="49.09023" lon="1.75758">
        <ele>214</ele>
        <time>2024-10-25T09:37:25Z</time>
      </trkpt>
      <trkpt lat="49.09019" lon="1.75745">
        <ele>214</ele>
        <time>2024-10-25T09:37:37Z</time>
      </trkpt>
      <trkpt lat="49.09005" lon="1.75719">
        <ele>215</ele>
        <time>2024-10-25T09:38:07Z</time>
      </trkpt>
      <trkpt lat="49.08991" lon="1.75711">
        <ele>214</ele>
        <time>2024-10-25T09:38:27Z</time>
      </trkpt>
      <trkpt lat="49.08948" lon="1.75693">
        <ele>214</ele>
        <time>2024-10-25T09:39:26Z</time>
      </trkpt>
      <trkpt lat="49.08897" lon="1.75684">
        <ele>214</ele>
        <time>2024-10-25T09:40:35Z</time>
      </trkpt>
      <trkpt lat="49.08858" lon="1.75674">
        <ele>215</ele>
        <time>2024-10-25T09:41:28Z</time>
      </trkpt>
      <trkpt lat="49.08831" lon="1.75662">
        <ele>215</ele>
        <time>2024-10-25T09:42:05Z</time>
      </trkpt>
      <trkpt lat="49.08825" lon="1.75657">
        <ele>215</ele>
        <time>2024-10-25T09:42:14Z</time>
      </trkpt>
      <trkpt lat="49.08807" lon="1.75628">
        <ele>215</ele>
        <time>2024-10-25T09:42:49Z</time>
      </trkpt>
      <trkpt lat="49.08792" lon="1.75558">
        <ele>214</ele>
        <time>2024-10-25T09:43:54Z</time>
      </trkpt>
      <trkpt lat="49.08778" lon="1.7552">
        <ele>213</ele>
        <time>2024-10-25T09:44:32Z</time>
      </trkpt>
      <trkpt lat="49.08768" lon="1.75503">
        <ele>213</ele>
        <time>2024-10-25T09:44:52Z</time>
      </trkpt>
      <trkpt lat="49.08752" lon="1.75484">
        <ele>213</ele>
        <time>2024-10-25T09:45:19Z</time>
      </trkpt>
      <trkpt lat="49.08727" lon="1.7546">
        <ele>211</ele>
        <time>2024-10-25T09:45:58Z</time>
      </trkpt>
      <trkpt lat="49.08664" lon="1.75419">
        <ele>208</ele>
        <time>2024-10-25T09:47:29Z</time>
      </trkpt>
      <trkpt lat="49.08632" lon="1.75401">
        <ele>207</ele>
        <time>2024-10-25T09:48:15Z</time>
      </trkpt>
      <trkpt lat="49.08603" lon="1.75367">
        <ele>206</ele>
        <time>2024-10-25T09:49:04Z</time>
      </trkpt>
      <trkpt lat="49.08581" lon="1.75346">
        <ele>206</ele>
        <time>2024-10-25T09:49:38Z</time>
      </trkpt>
      <trkpt lat="49.08569" lon="1.75346">
        <ele>206</ele>
        <time>2024-10-25T09:49:54Z</time>
      </trkpt>
      <trkpt lat="49.08553" lon="1.75339">
        <ele>206</ele>
        <time>2024-10-25T09:50:17Z</time>
      </trkpt>
      <trkpt lat="49.0855" lon="1.75343">
        <ele>206</ele>
        <time>2024-10-25T09:50:22Z</time>
      </trkpt>
      <trkpt lat="49.08539" lon="1.75345">
        <ele>207</ele>
        <time>2024-10-25T09:50:37Z</time>
      </trkpt>
      <trkpt lat="49.08497" lon="1.75344">
        <ele>207</ele>
        <time>2024-10-25T09:51:33Z</time>
      </trkpt>
      <trkpt lat="49.08476" lon="1.75339">
        <ele>207</ele>
        <time>2024-10-25T09:52:01Z</time>
      </trkpt>
      <trkpt lat="49.08464" lon="1.7533">
        <ele>207</ele>
        <time>2024-10-25T09:52:19Z</time>
      </trkpt>
      <trkpt lat="49.08457" lon="1.75335">
        <ele>206</ele>
        <time>2024-10-25T09:52:29Z</time>
      </trkpt>
      <trkpt lat="49.08453" lon="1.75344">
        <ele>206</ele>
        <time>2024-10-25T09:52:39Z</time>
      </trkpt>
      <trkpt lat="49.08444" lon="1.75345">
        <ele>206</ele>
        <time>2024-10-25T09:52:51Z</time>
      </trkpt>
      <trkpt lat="49.0843" lon="1.75334">
        <ele>206</ele>
        <time>2024-10-25T09:53:12Z</time>
      </trkpt>
      <trkpt lat="49.08404" lon="1.7532">
        <ele>206</ele>
        <time>2024-10-25T09:53:49Z</time>
      </trkpt>
      <trkpt lat="49.0839" lon="1.75316">
        <ele>205</ele>
        <time>2024-10-25T09:54:08Z</time>
      </trkpt>
      <trkpt lat="49.08378" lon="1.75305">
        <ele>205</ele>
        <time>2024-10-25T09:54:26Z</time>
      </trkpt>
      <trkpt lat="49.08354" lon="1.75293">
        <ele>203</ele>
        <time>2024-10-25T09:55:00Z</time>
      </trkpt>
      <trkpt lat="49.08349" lon="1.75294">
        <ele>203</ele>
        <time>2024-10-25T09:55:07Z</time>
      </trkpt>
      <trkpt lat="49.08345" lon="1.75298">
        <ele>203</ele>
        <time>2024-10-25T09:55:13Z</time>
      </trkpt>
      <trkpt lat="49.0833" lon="1.7529">
        <ele>202</ele>
        <time>2024-10-25T09:55:34Z</time>
      </trkpt>
      <trkpt lat="49.08318" lon="1.7528">
        <ele>202</ele>
        <time>2024-10-25T09:55:53Z</time>
      </trkpt>
      <trkpt lat="49.08304" lon="1.75276">
        <ele>202</ele>
        <time>2024-10-25T09:56:12Z</time>
      </trkpt>
      <trkpt lat="49.08279" lon="1.75255">
        <ele>201</ele>
        <time>2024-10-25T09:56:50Z</time>
      </trkpt>
      <trkpt lat="49.08249" lon="1.75237">
        <ele>199</ele>
        <time>2024-10-25T09:57:33Z</time>
      </trkpt>
      <trkpt lat="49.08241" lon="1.75226">
        <ele>198</ele>
        <time>2024-10-25T09:57:47Z</time>
      </trkpt>
      <trkpt lat="49.0824" lon="1.75231">
        <ele>198</ele>
        <time>2024-10-25T09:57:52Z</time>
      </trkpt>
      <trkpt lat="49.08234" lon="1.75219">
        <ele>197</ele>
        <time>2024-10-25T09:58:05Z</time>
      </trkpt>
      <trkpt lat="49.08234" lon="1.75208">
        <ele>197</ele>
        <time>2024-10-25T09:58:14Z</time>
      </trkpt>
      <trkpt lat="49.08205" lon="1.75186">
        <ele>193</ele>
        <time>2024-10-25T09:58:58Z</time>
      </trkpt>
      <trkpt lat="49.08182" lon="1.75161">
        <ele>189</ele>
        <time>2024-10-25T09:59:35Z</time>
      </trkpt>
      <trkpt lat="49.08162" lon="1.75">
        <ele>182</ele>
        <time>2024-10-25T10:01:58Z</time>
      </trkpt>
      <trkpt lat="49.08152" lon="1.74965">
        <ele>179</ele>
        <time>2024-10-25T10:02:32Z</time>
      </trkpt>
      <trkpt lat="49.08142" lon="1.74895">
        <ele>175</ele>
        <time>2024-10-25T10:03:34Z</time>
      </trkpt>
      <trkpt lat="49.08121" lon="1.74856">
        <ele>171</ele>
        <time>2024-10-25T10:04:19Z</time>
      </trkpt>
      <trkpt lat="49.08067" lon="1.74776">
        <ele>162</ele>
        <time>2024-10-25T10:05:59Z</time>
      </trkpt>
      <trkpt lat="49.08054" lon="1.74761">
        <ele>160</ele>
        <time>2024-10-25T10:06:21Z</time>
      </trkpt>
      <trkpt lat="49.08034" lon="1.74719">
        <ele>155</ele>
        <time>2024-10-25T10:07:06Z</time>
      </trkpt>
      <trkpt lat="49.08036" lon="1.74719">
        <ele>156</ele>
        <time>2024-10-25T10:07:09Z</time>
      </trkpt>
      <trkpt lat="49.08028" lon="1.7471">
        <ele>154</ele>
        <time>2024-10-25T10:07:22Z</time>
      </trkpt>
      <trkpt lat="49.08014" lon="1.74702">
        <ele>153</ele>
        <time>2024-10-25T10:07:42Z</time>
      </trkpt>
      <trkpt lat="49.08002" lon="1.74676">
        <ele>150</ele>
        <time>2024-10-25T10:08:10Z</time>
      </trkpt>
      <trkpt lat="49.0798" lon="1.74682">
        <ele>150</ele>
        <time>2024-10-25T10:08:40Z</time>
      </trkpt>
      <trkpt lat="49.07971" lon="1.74673">
        <ele>149</ele>
        <time>2024-10-25T10:08:54Z</time>
      </trkpt>
      <trkpt lat="49.07961" lon="1.7463">
        <ele>147</ele>
        <time>2024-10-25T10:09:34Z</time>
      </trkpt>
      <trkpt lat="49.07945" lon="1.74593">
        <ele>145</ele>
        <time>2024-10-25T10:10:13Z</time>
      </trkpt>
      <trkpt lat="49.07934" lon="1.74576">
        <ele>144</ele>
        <time>2024-10-25T10:10:34Z</time>
      </trkpt>
      <trkpt lat="49.07911" lon="1.74559">
        <ele>144</ele>
        <time>2024-10-25T10:11:08Z</time>
      </trkpt>
      <trkpt lat="49.07871" lon="1.74543">
        <ele>143</ele>
        <time>2024-10-25T10:12:03Z</time>
      </trkpt>
      <trkpt lat="49.07853" lon="1.74527">
        <ele>144</ele>
        <time>2024-10-25T10:12:31Z</time>
      </trkpt>
      <trkpt lat="49.07844" lon="1.7451">
        <ele>144</ele>
        <time>2024-10-25T10:12:50Z</time>
      </trkpt>
      <trkpt lat="49.07846" lon="1.74496">
        <ele>144</ele>
        <time>2024-10-25T10:13:02Z</time>
      </trkpt>
      <trkpt lat="49.0784" lon="1.74478">
        <ele>145</ele>
        <time>2024-10-25T10:13:20Z</time>
      </trkpt>
      <trkpt lat="49.07787" lon="1.74413">
        <ele>147</ele>
        <time>2024-10-25T10:14:51Z</time>
      </trkpt>
      <trkpt lat="49.07758" lon="1.74394">
        <ele>146</ele>
        <time>2024-10-25T10:15:33Z</time>
      </trkpt>
      <trkpt lat="49.07685" lon="1.74364">
        <ele>145</ele>
        <time>2024-10-25T10:17:14Z</time>
      </trkpt>
      <trkpt lat="49.07683" lon="1.7436">
        <ele>145</ele>
        <time>2024-10-25T10:17:18Z</time>
      </trkpt>
      <trkpt lat="49.07689" lon="1.74345">
        <ele>146</ele>
        <time>2024-10-25T10:17:33Z</time>
      </trkpt>
      <trkpt lat="49.07701" lon="1.74295">
        <ele>147</ele>
        <time>2024-10-25T10:18:20Z</time>
      </trkpt>
      <trkpt lat="49.07705" lon="1.74259">
        <ele>147</ele>
        <time>2024-10-25T10:18:52Z</time>
      </trkpt>
      <trkpt lat="49.07704" lon="1.7423">
        <ele>148</ele>
        <time>2024-10-25T10:19:17Z</time>
      </trkpt>
      <trkpt lat="49.07693" lon="1.74194">
        <ele>148</ele>
        <time>2024-10-25T10:19:52Z</time>
      </trkpt>
      <trkpt lat="49.07675" lon="1.74149">
        <ele>147</ele>
        <time>2024-10-25T10:20:38Z</time>
      </trkpt>
      <trkpt lat="49.07548" lon="1.73892">
        <ele>141</ele>
        <time>2024-10-25T10:25:19Z</time>
      </trkpt>
      <trkpt lat="49.07491" lon="1.73753">
        <ele>140</ele>
        <time>2024-10-25T10:27:43Z</time>
      </trkpt>
      <trkpt lat="49.07482" lon="1.73719">
        <ele>140</ele>
        <time>2024-10-25T10:28:15Z</time>
      </trkpt>
      <trkpt lat="49.07475" lon="1.73666">
        <ele>140</ele>
        <time>2024-10-25T10:29:02Z</time>
      </trkpt>
      <trkpt lat="49.07458" lon="1.73572">
        <ele>141</ele>
        <time>2024-10-25T10:30:27Z</time>
      </trkpt>
      <trkpt lat="49.07444" lon="1.73473">
        <ele>143</ele>
        <time>2024-10-25T10:31:56Z</time>
      </trkpt>
      <trkpt lat="49.07426" lon="1.73375">
        <ele>144</ele>
        <time>2024-10-25T10:33:25Z</time>
      </trkpt>
      <trkpt lat="49.07411" lon="1.73271">
        <ele>144</ele>
        <time>2024-10-25T10:34:58Z</time>
      </trkpt>
      <trkpt lat="49.07404" lon="1.73204">
        <ele>145</ele>
        <time>2024-10-25T10:35:57Z</time>
      </trkpt>
      <trkpt lat="49.07401" lon="1.73199">
        <ele>145</ele>
        <time>2024-10-25T10:36:03Z</time>
      </trkpt>
      <trkpt lat="49.07406" lon="1.73133">
        <ele>145</ele>
        <time>2024-10-25T10:37:01Z</time>
      </trkpt>
      <trkpt lat="49.07419" lon="1.7304">
        <ele>143</ele>
        <time>2024-10-25T10:38:24Z</time>
      </trkpt>
      <trkpt lat="49.07451" lon="1.72905">
        <ele>141</ele>
        <time>2024-10-25T10:40:30Z</time>
      </trkpt>
      <trkpt lat="49.07454" lon="1.72883">
        <ele>141</ele>
        <time>2024-10-25T10:40:50Z</time>
      </trkpt>
      <trkpt lat="49.0755" lon="1.72514">
        <ele>142</ele>
        <time>2024-10-25T10:46:37Z</time>
      </trkpt>
      <trkpt lat="49.07572" lon="1.72397">
        <ele>139</ele>
        <time>2024-10-25T10:48:23Z</time>
      </trkpt>
      <trkpt lat="49.07597" lon="1.72295">
        <ele>138</ele>
        <time>2024-10-25T10:49:58Z</time>
      </trkpt>
      <trkpt lat="49.07598" lon="1.72268">
        <ele>138</ele>
        <time>2024-10-25T10:50:22Z</time>
      </trkpt>
      <trkpt lat="49.07596" lon="1.72262">
        <ele>138</ele>
        <time>2024-10-25T10:50:28Z</time>
      </trkpt>
      <trkpt lat="49.07598" lon="1.72263">
        <ele>138</ele>
        <time>2024-10-25T10:50:31Z</time>
      </trkpt>
      <trkpt lat="49.07595" lon="1.72264">
        <ele>138</ele>
        <time>2024-10-25T10:50:35Z</time>
      </trkpt>
      <trkpt lat="49.07597" lon="1.72265">
        <ele>138</ele>
        <time>2024-10-25T10:50:38Z</time>
      </trkpt>
      <trkpt lat="49.07598" lon="1.72262">
        <ele>138</ele>
        <time>2024-10-25T10:50:40Z</time>
      </trkpt>
      <trkpt lat="49.07604" lon="1.72212">
        <ele>137</ele>
        <time>2024-10-25T10:51:25Z</time>
      </trkpt>
      <trkpt lat="49.07605" lon="1.72158">
        <ele>135</ele>
        <time>2024-10-25T10:52:12Z</time>
      </trkpt>
      <trkpt lat="49.07601" lon="1.72139">
        <ele>133</ele>
        <time>2024-10-25T10:52:30Z</time>
      </trkpt>
      <trkpt lat="49.07597" lon="1.72128">
        <ele>132</ele>
        <time>2024-10-25T10:52:41Z</time>
      </trkpt>
      <trkpt lat="49.07575" lon="1.72102">
        <ele>131</ele>
        <time>2024-10-25T10:53:18Z</time>
      </trkpt>
      <trkpt lat="49.07554" lon="1.72089">
        <ele>129</ele>
        <time>2024-10-25T10:53:48Z</time>
      </trkpt>
      <trkpt lat="49.07546" lon="1.72078">
        <ele>128</ele>
        <time>2024-10-25T10:54:02Z</time>
      </trkpt>
      <trkpt lat="49.07538" lon="1.72061">
        <ele>126</ele>
        <time>2024-10-25T10:54:21Z</time>
      </trkpt>
      <trkpt lat="49.07536" lon="1.72035">
        <ele>122</ele>
        <time>2024-10-25T10:54:43Z</time>
      </trkpt>
      <trkpt lat="49.0754" lon="1.71991">
        <ele>115</ele>
        <time>2024-10-25T10:55:22Z</time>
      </trkpt>
      <trkpt lat="49.07548" lon="1.71954">
        <ele>109</ele>
        <time>2024-10-25T10:55:56Z</time>
      </trkpt>
      <trkpt lat="49.07552" lon="1.7192">
        <ele>105</ele>
        <time>2024-10-25T10:56:27Z</time>
      </trkpt>
      <trkpt lat="49.07573" lon="1.71869">
        <ele>99</ele>
        <time>2024-10-25T10:57:19Z</time>
      </trkpt>
      <trkpt lat="49.07572" lon="1.71861">
        <ele>99</ele>
        <time>2024-10-25T10:57:26Z</time>
      </trkpt>
      <trkpt lat="49.07579" lon="1.7186">
        <ele>99</ele>
        <time>2024-10-25T10:57:36Z</time>
      </trkpt>
      <trkpt lat="49.0758" lon="1.71858">
        <ele>98</ele>
        <time>2024-10-25T10:57:38Z</time>
      </trkpt>
      <trkpt lat="49.07578" lon="1.71847">
        <ele>97</ele>
        <time>2024-10-25T10:57:48Z</time>
      </trkpt>
      <trkpt lat="49.07562" lon="1.71831">
        <ele>96</ele>
        <time>2024-10-25T10:58:13Z</time>
      </trkpt>
      <trkpt lat="49.07551" lon="1.71809">
        <ele>95</ele>
        <time>2024-10-25T10:58:38Z</time>
      </trkpt>
      <trkpt lat="49.07546" lon="1.7179">
        <ele>93</ele>
        <time>2024-10-25T10:58:56Z</time>
      </trkpt>
      <trkpt lat="49.07541" lon="1.71751">
        <ele>91</ele>
        <time>2024-10-25T10:59:30Z</time>
      </trkpt>
      <trkpt lat="49.07538" lon="1.71746">
        <ele>91</ele>
        <time>2024-10-25T10:59:36Z</time>
      </trkpt>
      <trkpt lat="49.07504" lon="1.71733">
        <ele>92</ele>
        <time>2024-10-25T11:00:23Z</time>
      </trkpt>
      <trkpt lat="49.07486" lon="1.71737">
        <ele>91</ele>
        <time>2024-10-25T11:00:47Z</time>
      </trkpt>
      <trkpt lat="49.07478" lon="1.71731">
        <ele>91</ele>
        <time>2024-10-25T11:00:59Z</time>
      </trkpt>
      <trkpt lat="49.07459" lon="1.71728">
        <ele>90</ele>
        <time>2024-10-25T11:01:25Z</time>
      </trkpt>
      <trkpt lat="49.07446" lon="1.71721">
        <ele>90</ele>
        <time>2024-10-25T11:01:43Z</time>
      </trkpt>
      <trkpt lat="49.07443" lon="1.71717">
        <ele>90</ele>
        <time>2024-10-25T11:01:48Z</time>
      </trkpt>
      <trkpt lat="49.07434" lon="1.71715">
        <ele>89</ele>
        <time>2024-10-25T11:02:00Z</time>
      </trkpt>
      <trkpt lat="49.074" lon="1.71716">
        <ele>87</ele>
        <time>2024-10-25T11:02:46Z</time>
      </trkpt>
      <trkpt lat="49.07392" lon="1.71711">
        <ele>87</ele>
        <time>2024-10-25T11:02:57Z</time>
      </trkpt>
      <trkpt lat="49.07379" lon="1.71711">
        <ele>86</ele>
        <time>2024-10-25T11:03:15Z</time>
      </trkpt>
      <trkpt lat="49.0737" lon="1.71714">
        <ele>86</ele>
        <time>2024-10-25T11:03:27Z</time>
      </trkpt>
      <trkpt lat="49.07291" lon="1.71675">
        <ele>79</ele>
        <time>2024-10-25T11:05:18Z</time>
      </trkpt>
      <trkpt lat="49.07242" lon="1.71665">
        <ele>77</ele>
        <time>2024-10-25T11:06:24Z</time>
      </trkpt>
      <trkpt lat="49.07224" lon="1.71675">
        <ele>77</ele>
        <time>2024-10-25T11:06:49Z</time>
      </trkpt>
      <trkpt lat="49.07235" lon="1.71664">
        <ele>77</ele>
        <time>2024-10-25T11:07:07Z</time>
      </trkpt>
      <trkpt lat="49.07236" lon="1.71647">
        <ele>78</ele>
        <time>2024-10-25T11:07:22Z</time>
      </trkpt>
      <trkpt lat="49.07226" lon="1.71629">
        <ele>80</ele>
        <time>2024-10-25T11:07:42Z</time>
      </trkpt>
      <trkpt lat="49.07214" lon="1.71617">
        <ele>81</ele>
        <time>2024-10-25T11:08:02Z</time>
      </trkpt>
      <trkpt lat="49.072" lon="1.71609">
        <ele>81</ele>
        <time>2024-10-25T11:08:22Z</time>
      </trkpt>
      <trkpt lat="49.07179" lon="1.7161">
        <ele>80</ele>
        <time>2024-10-25T11:08:50Z</time>
      </trkpt>
      <trkpt lat="49.07123" lon="1.71629">
        <ele>77</ele>
        <time>2024-10-25T11:10:06Z</time>
      </trkpt>
      <trkpt lat="49.07089" lon="1.71634">
        <ele>75</ele>
        <time>2024-10-25T11:10:52Z</time>
      </trkpt>
      <trkpt lat="49.07051" lon="1.71635">
        <ele>74</ele>
        <time>2024-10-25T11:11:42Z</time>
      </trkpt>
      <trkpt lat="49.07028" lon="1.71632">
        <ele>73</ele>
        <time>2024-10-25T11:12:13Z</time>
      </trkpt>
      <trkpt lat="49.07012" lon="1.71627">
        <ele>73</ele>
        <time>2024-10-25T11:12:35Z</time>
      </trkpt>
      <trkpt lat="49.06993" lon="1.71627">
        <ele>72</ele>
        <time>2024-10-25T11:13:00Z</time>
      </trkpt>
      <trkpt lat="49.06949" lon="1.71603">
        <ele>73</ele>
        <time>2024-10-25T11:14:03Z</time>
      </trkpt>
      <trkpt lat="49.06924" lon="1.71582">
        <ele>74</ele>
        <time>2024-10-25T11:14:41Z</time>
      </trkpt>
      <trkpt lat="49.06917" lon="1.7158">
        <ele>73</ele>
        <time>2024-10-25T11:14:50Z</time>
      </trkpt>
      <trkpt lat="49.06908" lon="1.71569">
        <ele>74</ele>
        <time>2024-10-25T11:15:06Z</time>
      </trkpt>
      <trkpt lat="49.0689" lon="1.71563">
        <ele>74</ele>
        <time>2024-10-25T11:15:30Z</time>
      </trkpt>
      <trkpt lat="49.06874" lon="1.71548">
        <ele>74</ele>
        <time>2024-10-25T11:15:55Z</time>
      </trkpt>
      <trkpt lat="49.06849" lon="1.71533">
        <ele>75</ele>
        <time>2024-10-25T11:16:31Z</time>
      </trkpt>
      <trkpt lat="49.0684" lon="1.71524">
        <ele>75</ele>
        <time>2024-10-25T11:16:46Z</time>
      </trkpt>
      <trkpt lat="49.06835" lon="1.71524">
        <ele>75</ele>
        <time>2024-10-25T11:16:52Z</time>
      </trkpt>
      <trkpt lat="49.06832" lon="1.71516">
        <ele>75</ele>
        <time>2024-10-25T11:17:00Z</time>
      </trkpt>
      <trkpt lat="49.06824" lon="1.71513">
        <ele>75</ele>
        <time>2024-10-25T11:17:11Z</time>
      </trkpt>
      <trkpt lat="49.06796" lon="1.71491">
        <ele>74</ele>
        <time>2024-10-25T11:17:53Z</time>
      </trkpt>
      <trkpt lat="49.06787" lon="1.71477">
        <ele>74</ele>
        <time>2024-10-25T11:18:10Z</time>
      </trkpt>
      <trkpt lat="49.06743" lon="1.71426">
        <ele>72</ele>
        <time>2024-10-25T11:19:24Z</time>
      </trkpt>
      <trkpt lat="49.06738" lon="1.71416">
        <ele>72</ele>
        <time>2024-10-25T11:19:35Z</time>
      </trkpt>
      <trkpt lat="49.06711" lon="1.71349">
        <ele>74</ele>
        <time>2024-10-25T11:20:44Z</time>
      </trkpt>
      <trkpt lat="49.06683" lon="1.71263">
        <ele>74</ele>
        <time>2024-10-25T11:22:08Z</time>
      </trkpt>
      <trkpt lat="49.06651" lon="1.71104">
        <ele>70</ele>
        <time>2024-10-25T11:24:33Z</time>
      </trkpt>
      <trkpt lat="49.06635" lon="1.71001">
        <ele>68</ele>
        <time>2024-10-25T11:26:06Z</time>
      </trkpt>
      <trkpt lat="49.06621" lon="1.70952">
        <ele>65</ele>
        <time>2024-10-25T11:26:53Z</time>
      </trkpt>
      <trkpt lat="49.06606" lon="1.70869">
        <ele>60</ele>
        <time>2024-10-25T11:28:08Z</time>
      </trkpt>
      <trkpt lat="49.06585" lon="1.70719">
        <ele>54</ele>
        <time>2024-10-25T11:30:22Z</time>
      </trkpt>
      <trkpt lat="49.06576" lon="1.70681">
        <ele>51</ele>
        <time>2024-10-25T11:30:57Z</time>
      </trkpt>
      <trkpt lat="49.06574" lon="1.70654">
        <ele>50</ele>
        <time>2024-10-25T11:31:21Z</time>
      </trkpt>
      <trkpt lat="49.06583" lon="1.70647">
        <ele>51</ele>
        <time>2024-10-25T11:31:35Z</time>
      </trkpt>
      <trkpt lat="49.06602" lon="1.70644">
        <ele>54</ele>
        <time>2024-10-25T11:32:00Z</time>
      </trkpt>
      <trkpt lat="49.06616" lon="1.70636">
        <ele>56</ele>
        <time>2024-10-25T11:32:20Z</time>
      </trkpt>
      <trkpt lat="49.06628" lon="1.70636">
        <ele>57</ele>
        <time>2024-10-25T11:32:36Z</time>
      </trkpt>
      <trkpt lat="49.06658" lon="1.70628">
        <ele>61</ele>
        <time>2024-10-25T11:33:17Z</time>
      </trkpt>
      <trkpt lat="49.06689" lon="1.70645">
        <ele>65</ele>
        <time>2024-10-25T11:34:01Z</time>
      </trkpt>
      <trkpt lat="49.06703" lon="1.70658">
        <ele>67</ele>
        <time>2024-10-25T11:34:23Z</time>
      </trkpt>
      <trkpt lat="49.06726" lon="1.70673">
        <ele>71</ele>
        <time>2024-10-25T11:34:56Z</time>
      </trkpt>
      <trkpt lat="49.06723" lon="1.70673">
        <ele>70</ele>
        <time>2024-10-25T11:35:00Z</time>
      </trkpt>
      <trkpt lat="49.06744" lon="1.70691">
        <ele>74</ele>
        <time>2024-10-25T11:35:32Z</time>
      </trkpt>
      <trkpt lat="49.06752" lon="1.70703">
        <ele>76</ele>
        <time>2024-10-25T11:35:47Z</time>
      </trkpt>
      <trkpt lat="49.06773" lon="1.70724">
        <ele>79</ele>
        <time>2024-10-25T11:36:21Z</time>
      </trkpt>
      <trkpt lat="49.06807" lon="1.70749">
        <ele>82</ele>
        <time>2024-10-25T11:37:11Z</time>
      </trkpt>
      <trkpt lat="49.0684" lon="1.70781">
        <ele>87</ele>
        <time>2024-10-25T11:38:03Z</time>
      </trkpt>
      <trkpt lat="49.06859" lon="1.70807">
        <ele>91</ele>
        <time>2024-10-25T11:38:37Z</time>
      </trkpt>
      <trkpt lat="49.06879" lon="1.70826">
        <ele>94</ele>
        <time>2024-10-25T11:39:09Z</time>
      </trkpt>
      <trkpt lat="49.06901" lon="1.70841">
        <ele>97</ele>
        <time>2024-10-25T11:39:41Z</time>
      </trkpt>
      <trkpt lat="49.06944" lon="1.70895">
        <ele>107</ele>
        <time>2024-10-25T11:40:55Z</time>
      </trkpt>
      <trkpt lat="49.06964" lon="1.70916">
        <ele>110</ele>
        <time>2024-10-25T11:41:27Z</time>
      </trkpt>
      <trkpt lat="49.06994" lon="1.70961">
        <ele>115</ele>
        <time>2024-10-25T11:42:24Z</time>
      </trkpt>
      <trkpt lat="49.07005" lon="1.70973">
        <ele>117</ele>
        <time>2024-10-25T11:42:42Z</time>
      </trkpt>
      <trkpt lat="49.07036" lon="1.70988">
        <ele>119</ele>
        <time>2024-10-25T11:43:25Z</time>
      </trkpt>
      <trkpt lat="49.07063" lon="1.7102">
        <ele>122</ele>
        <time>2024-10-25T11:44:11Z</time>
      </trkpt>
      <trkpt lat="49.07076" lon="1.71042">
        <ele>122</ele>
        <time>2024-10-25T11:44:36Z</time>
      </trkpt>
      <trkpt lat="49.07088" lon="1.71057">
        <ele>122</ele>
        <time>2024-10-25T11:44:57Z</time>
      </trkpt>
      <trkpt lat="49.07114" lon="1.71079">
        <ele>123</ele>
        <time>2024-10-25T11:45:37Z</time>
      </trkpt>
      <trkpt lat="49.07135" lon="1.71081">
        <ele>124</ele>
        <time>2024-10-25T11:46:05Z</time>
      </trkpt>
      <trkpt lat="49.07152" lon="1.71095">
        <ele>124</ele>
        <time>2024-10-25T11:46:31Z</time>
      </trkpt>
      <trkpt lat="49.07203" lon="1.71121">
        <ele>126</ele>
        <time>2024-10-25T11:47:42Z</time>
      </trkpt>
      <trkpt lat="49.07244" lon="1.71147">
        <ele>125</ele>
        <time>2024-10-25T11:48:42Z</time>
      </trkpt>
      <trkpt lat="49.07309" lon="1.71179">
        <ele>129</ele>
        <time>2024-10-25T11:50:13Z</time>
      </trkpt>
      <trkpt lat="49.07343" lon="1.7119">
        <ele>130</ele>
        <time>2024-10-25T11:50:59Z</time>
      </trkpt>
      <trkpt lat="49.07358" lon="1.712">
        <ele>130</ele>
        <time>2024-10-25T11:51:21Z</time>
      </trkpt>
      <trkpt lat="49.07363" lon="1.71207">
        <ele>130</ele>
        <time>2024-10-25T11:51:30Z</time>
      </trkpt>
      <trkpt lat="49.07372" lon="1.7121">
        <ele>130</ele>
        <time>2024-10-25T11:51:42Z</time>
      </trkpt>
      <trkpt lat="49.07382" lon="1.71218">
        <ele>130</ele>
        <time>2024-10-25T11:51:57Z</time>
      </trkpt>
      <trkpt lat="49.07403" lon="1.71224">
        <ele>130</ele>
        <time>2024-10-25T11:52:26Z</time>
      </trkpt>
      <trkpt lat="49.07441" lon="1.71248">
        <ele>131</ele>
        <time>2024-10-25T11:53:21Z</time>
      </trkpt>
      <trkpt lat="49.07495" lon="1.71269">
        <ele>132</ele>
        <time>2024-10-25T11:54:35Z</time>
      </trkpt>
      <trkpt lat="49.07527" lon="1.71292">
        <ele>131</ele>
        <time>2024-10-25T11:55:22Z</time>
      </trkpt>
      <trkpt lat="49.07548" lon="1.71293">
        <ele>133</ele>
        <time>2024-10-25T11:55:50Z</time>
      </trkpt>
      <trkpt lat="49.07573" lon="1.71317">
        <ele>133</ele>
        <time>2024-10-25T11:56:30Z</time>
      </trkpt>
      <trkpt lat="49.07677" lon="1.71351">
        <ele>134</ele>
        <time>2024-10-25T11:58:52Z</time>
      </trkpt>
      <trkpt lat="49.07706" lon="1.71372">
        <ele>135</ele>
        <time>2024-10-25T11:59:35Z</time>
      </trkpt>
      <trkpt lat="49.07764" lon="1.71394">
        <ele>137</ele>
        <time>2024-10-25T12:00:54Z</time>
      </trkpt>
      <trkpt lat="49.0784" lon="1.71431">
        <ele>138</ele>
        <time>2024-10-25T12:02:41Z</time>
      </trkpt>
      <trkpt lat="49.07921" lon="1.71462">
        <ele>140</ele>
        <time>2024-10-25T12:04:32Z</time>
      </trkpt>
      <trkpt lat="49.07955" lon="1.71467">
        <ele>140</ele>
        <time>2024-10-25T12:05:18Z</time>
      </trkpt>
      <trkpt lat="49.07978" lon="1.71473">
        <ele>140</ele>
        <time>2024-10-25T12:05:49Z</time>
      </trkpt>
      <trkpt lat="49.07989" lon="1.71478">
        <ele>140</ele>
        <time>2024-10-25T12:06:04Z</time>
      </trkpt>
      <trkpt lat="49.08009" lon="1.71493">
        <ele>141</ele>
        <time>2024-10-25T12:06:34Z</time>
      </trkpt>
      <trkpt lat="49.08066" lon="1.7156">
        <ele>140</ele>
        <time>2024-10-25T12:08:10Z</time>
      </trkpt>
      <trkpt lat="49.08137" lon="1.71634">
        <ele>142</ele>
        <time>2024-10-25T12:10:05Z</time>
      </trkpt>
      <trkpt lat="49.08144" lon="1.71646">
        <ele>142</ele>
        <time>2024-10-25T12:10:19Z</time>
      </trkpt>
      <trkpt lat="49.08162" lon="1.71666">
        <ele>142</ele>
        <time>2024-10-25T12:10:49Z</time>
      </trkpt>
      <trkpt lat="49.08169" lon="1.71681">
        <ele>142</ele>
        <time>2024-10-25T12:11:05Z</time>
      </trkpt>
      <trkpt lat="49.08195" lon="1.7172">
        <ele>141</ele>
        <time>2024-10-25T12:11:53Z</time>
      </trkpt>
      <trkpt lat="49.08232" lon="1.71768">
        <ele>142</ele>
        <time>2024-10-25T12:12:58Z</time>
      </trkpt>
      <trkpt lat="49.08267" lon="1.71804">
        <ele>143</ele>
        <time>2024-10-25T12:13:54Z</time>
      </trkpt>
      <trkpt lat="49.08321" lon="1.71846">
        <ele>145</ele>
        <time>2024-10-25T12:15:15Z</time>
      </trkpt>
      <trkpt lat="49.0836" lon="1.71873">
        <ele>146</ele>
        <time>2024-10-25T12:16:12Z</time>
      </trkpt>
      <trkpt lat="49.08376" lon="1.71889">
        <ele>146</ele>
        <time>2024-10-25T12:16:38Z</time>
      </trkpt>
      <trkpt lat="49.08389" lon="1.71897">
        <ele>146</ele>
        <time>2024-10-25T12:16:57Z</time>
      </trkpt>
      <trkpt lat="49.08397" lon="1.7191">
        <ele>146</ele>
        <time>2024-10-25T12:17:12Z</time>
      </trkpt>
      <trkpt lat="49.08452" lon="1.71972">
        <ele>147</ele>
        <time>2024-10-25T12:18:43Z</time>
      </trkpt>
      <trkpt lat="49.08466" lon="1.71995">
        <ele>147</ele>
        <time>2024-10-25T12:19:11Z</time>
      </trkpt>
      <trkpt lat="49.08477" lon="1.72008">
        <ele>147</ele>
        <time>2024-10-25T12:19:29Z</time>
      </trkpt>
      <trkpt lat="49.08496" lon="1.72023">
        <ele>146</ele>
        <time>2024-10-25T12:19:58Z</time>
      </trkpt>
      <trkpt lat="49.08534" lon="1.72046">
        <ele>146</ele>
        <time>2024-10-25T12:20:53Z</time>
      </trkpt>
      <trkpt lat="49.08556" lon="1.72057">
        <ele>146</ele>
        <time>2024-10-25T12:21:23Z</time>
      </trkpt>
      <trkpt lat="49.08612" lon="1.72077">
        <ele>147</ele>
        <time>2024-10-25T12:22:40Z</time>
      </trkpt>
      <trkpt lat="49.0863" lon="1.72088">
        <ele>148</ele>
        <time>2024-10-25T12:23:06Z</time>
      </trkpt>
      <trkpt lat="49.08629" lon="1.7209">
        <ele>147</ele>
        <time>2024-10-25T12:23:08Z</time>
      </trkpt>
      <trkpt lat="49.08629" lon="1.72088">
        <ele>147</ele>
        <time>2024-10-25T12:23:10Z</time>
      </trkpt>
      <trkpt lat="49.08633" lon="1.72087">
        <ele>148</ele>
        <time>2024-10-25T12:23:15Z</time>
      </trkpt>
      <trkpt lat="49.08641" lon="1.72099">
        <ele>148</ele>
        <time>2024-10-25T12:23:30Z</time>
      </trkpt>
      <trkpt lat="49.08655" lon="1.72108">
        <ele>148</ele>
        <time>2024-10-25T12:23:51Z</time>
      </trkpt>
      <trkpt lat="49.08695" lon="1.72121">
        <ele>148</ele>
        <time>2024-10-25T12:24:45Z</time>
      </trkpt>
      <trkpt lat="49.08741" lon="1.72131">
        <ele>148</ele>
        <time>2024-10-25T12:25:47Z</time>
      </trkpt>
      <trkpt lat="49.08749" lon="1.72225">
        <ele>146</ele>
        <time>2024-10-25T12:27:10Z</time>
      </trkpt>
      <trkpt lat="49.08747" lon="1.72276">
        <ele>146</ele>
        <time>2024-10-25T12:27:55Z</time>
      </trkpt>
      <trkpt lat="49.08754" lon="1.72326">
        <ele>147</ele>
        <time>2024-10-25T12:28:39Z</time>
      </trkpt>
      <trkpt lat="49.08761" lon="1.7235">
        <ele>147</ele>
        <time>2024-10-25T12:29:02Z</time>
      </trkpt>
      <trkpt lat="49.08771" lon="1.72369">
        <ele>148</ele>
        <time>2024-10-25T12:29:24Z</time>
      </trkpt>
      <trkpt lat="49.08809" lon="1.72414">
        <ele>148</ele>
        <time>2024-10-25T12:30:28Z</time>
      </trkpt>
      <trkpt lat="49.08815" lon="1.72444">
        <ele>149</ele>
        <time>2024-10-25T12:30:55Z</time>
      </trkpt>
      <trkpt lat="49.08799" lon="1.7249">
        <ele>148</ele>
        <time>2024-10-25T12:31:41Z</time>
      </trkpt>
      <trkpt lat="49.08795" lon="1.7251">
        <ele>148</ele>
        <time>2024-10-25T12:31:59Z</time>
      </trkpt>
      <trkpt lat="49.08797" lon="1.72537">
        <ele>149</ele>
        <time>2024-10-25T12:32:23Z</time>
      </trkpt>
      <trkpt lat="49.08807" lon="1.72546">
        <ele>149</ele>
        <time>2024-10-25T12:32:38Z</time>
      </trkpt>
      <trkpt lat="49.08836" lon="1.72583">
        <ele>151</ele>
        <time>2024-10-25T12:33:29Z</time>
      </trkpt>
      <trkpt lat="49.08844" lon="1.72589">
        <ele>152</ele>
        <time>2024-10-25T12:33:41Z</time>
      </trkpt>
      <trkpt lat="49.0887" lon="1.72627">
        <ele>152</ele>
        <time>2024-10-25T12:34:29Z</time>
      </trkpt>
      <trkpt lat="49.08878" lon="1.7263">
        <ele>153</ele>
        <time>2024-10-25T12:34:40Z</time>
      </trkpt>
      <trkpt lat="49.08888" lon="1.72622">
        <ele>154</ele>
        <time>2024-10-25T12:34:55Z</time>
      </trkpt>
      <trkpt lat="49.08897" lon="1.72623">
        <ele>154</ele>
        <time>2024-10-25T12:35:07Z</time>
      </trkpt>
      <trkpt lat="49.08907" lon="1.72614">
        <ele>155</ele>
        <time>2024-10-25T12:35:22Z</time>
      </trkpt>
      <trkpt lat="49.08956" lon="1.72585">
        <ele>160</ele>
        <time>2024-10-25T12:36:32Z</time>
      </trkpt>
      <trkpt lat="49.08969" lon="1.72575">
        <ele>161</ele>
        <time>2024-10-25T12:36:52Z</time>
      </trkpt>
      <trkpt lat="49.08982" lon="1.72569">
        <ele>162</ele>
        <time>2024-10-25T12:37:10Z</time>
      </trkpt>
      <trkpt lat="49.08997" lon="1.72557">
        <ele>163</ele>
        <time>2024-10-25T12:37:32Z</time>
      </trkpt>
      <trkpt lat="49.0901" lon="1.72552">
        <ele>164</ele>
        <time>2024-10-25T12:37:50Z</time>
      </trkpt>
      <trkpt lat="49.09022" lon="1.72552">
        <ele>164</ele>
        <time>2024-10-25T12:38:06Z</time>
      </trkpt>
      <trkpt lat="49.09036" lon="1.72547">
        <ele>165</ele>
        <time>2024-10-25T12:38:26Z</time>
      </trkpt>
      <trkpt lat="49.09054" lon="1.72549">
        <ele>166</ele>
        <time>2024-10-25T12:38:50Z</time>
      </trkpt>
      <trkpt lat="49.09071" lon="1.72545">
        <ele>167</ele>
        <time>2024-10-25T12:39:13Z</time>
      </trkpt>
      <trkpt lat="49.09086" lon="1.72536">
        <ele>168</ele>
        <time>2024-10-25T12:39:34Z</time>
      </trkpt>
      <trkpt lat="49.09097" lon="1.72534">
        <ele>168</ele>
        <time>2024-10-25T12:39:49Z</time>
      </trkpt>
      <trkpt lat="49.091" lon="1.72522">
        <ele>169</ele>
        <time>2024-10-25T12:40:00Z</time>
      </trkpt>
      <trkpt lat="49.0909" lon="1.72486">
        <ele>169</ele>
        <time>2024-10-25T12:40:34Z</time>
      </trkpt>
      <trkpt lat="49.09079" lon="1.72471">
        <ele>169</ele>
        <time>2024-10-25T12:40:54Z</time>
      </trkpt>
      <trkpt lat="49.09062" lon="1.7244">
        <ele>168</ele>
        <time>2024-10-25T12:41:29Z</time>
      </trkpt>
      <trkpt lat="49.09064" lon="1.72432">
        <ele>169</ele>
        <time>2024-10-25T12:41:37Z</time>
      </trkpt>
      <trkpt lat="49.09146" lon="1.72382">
        <ele>181</ele>
        <time>2024-10-25T12:43:35Z</time>
      </trkpt>
      <trkpt lat="49.09156" lon="1.72379">
        <ele>182</ele>
        <time>2024-10-25T12:43:48Z</time>
      </trkpt>
      <trkpt lat="49.0916" lon="1.72374">
        <ele>183</ele>
        <time>2024-10-25T12:43:55Z</time>
      </trkpt>
      <trkpt lat="49.09164" lon="1.7238">
        <ele>183</ele>
        <time>2024-10-25T12:44:03Z</time>
      </trkpt>
      <trkpt lat="49.09159" lon="1.72378">
        <ele>182</ele>
        <time>2024-10-25T12:44:10Z</time>
      </trkpt>
      <trkpt lat="49.09158" lon="1.72381">
        <ele>182</ele>
        <time>2024-10-25T12:44:12Z</time>
      </trkpt>
      <trkpt lat="49.09184" lon="1.72419">
        <ele>182</ele>
        <time>2024-10-25T12:45:00Z</time>
      </trkpt>
      <trkpt lat="49.09197" lon="1.72428">
        <ele>181</ele>
        <time>2024-10-25T12:45:20Z</time>
      </trkpt>
      <trkpt lat="49.09203" lon="1.72436">
        <ele>181</ele>
        <time>2024-10-25T12:45:30Z</time>
      </trkpt>
      <trkpt lat="49.09211" lon="1.72439">
        <ele>181</ele>
        <time>2024-10-25T12:45:41Z</time>
      </trkpt>
      <trkpt lat="49.09197" lon="1.72482">
        <ele>176</ele>
        <time>2024-10-25T12:46:23Z</time>
      </trkpt>
      <trkpt lat="49.09188" lon="1.72491">
        <ele>175</ele>
        <time>2024-10-25T12:46:37Z</time>
      </trkpt>
      <trkpt lat="49.09156" lon="1.72505">
        <ele>172</ele>
        <time>2024-10-25T12:47:22Z</time>
      </trkpt>
      <trkpt lat="49.09123" lon="1.72516">
        <ele>170</ele>
        <time>2024-10-25T12:48:07Z</time>
      </trkpt>
      <trkpt lat="49.09125" lon="1.72518">
        <ele>170</ele>
        <time>2024-10-25T12:48:10Z</time>
      </trkpt>
      <trkpt lat="49.09129" lon="1.72552">
        <ele>169</ele>
        <time>2024-10-25T12:48:40Z</time>
      </trkpt>
      <trkpt lat="49.09118" lon="1.72571">
        <ele>168</ele>
        <time>2024-10-25T12:49:03Z</time>
      </trkpt>
      <trkpt lat="49.09112" lon="1.72644">
        <ele>166</ele>
        <time>2024-10-25T12:50:07Z</time>
      </trkpt>
      <trkpt lat="49.09103" lon="1.72697">
        <ele>163</ele>
        <time>2024-10-25T12:50:55Z</time>
      </trkpt>
      <trkpt lat="49.09092" lon="1.7272">
        <ele>161</ele>
        <time>2024-10-25T12:51:20Z</time>
      </trkpt>
      <trkpt lat="49.09065" lon="1.72761">
        <ele>158</ele>
        <time>2024-10-25T12:52:10Z</time>
      </trkpt>
      <trkpt lat="49.09032" lon="1.72826">
        <ele>154</ele>
        <time>2024-10-25T12:53:22Z</time>
      </trkpt>
      <trkpt lat="49.09019" lon="1.72842">
        <ele>154</ele>
        <time>2024-10-25T12:53:45Z</time>
      </trkpt>
      <trkpt lat="49.0901" lon="1.72861">
        <ele>153</ele>
        <time>2024-10-25T12:54:05Z</time>
      </trkpt>
      <trkpt lat="49.09002" lon="1.72872">
        <ele>153</ele>
        <time>2024-10-25T12:54:19Z</time>
      </trkpt>
      <trkpt lat="49.08984" lon="1.72914">
        <ele>151</ele>
        <time>2024-10-25T12:55:03Z</time>
      </trkpt>
      <trkpt lat="49.08958" lon="1.72998">
        <ele>147</ele>
        <time>2024-10-25T12:56:24Z</time>
      </trkpt>
      <trkpt lat="49.08934" lon="1.73065">
        <ele>145</ele>
        <time>2024-10-25T12:57:31Z</time>
      </trkpt>
      <trkpt lat="49.08931" lon="1.73085">
        <ele>145</ele>
        <time>2024-10-25T12:57:49Z</time>
      </trkpt>
      <trkpt lat="49.08934" lon="1.73149">
        <ele>147</ele>
        <time>2024-10-25T12:58:45Z</time>
      </trkpt>
      <trkpt lat="49.08929" lon="1.73172">
        <ele>147</ele>
        <time>2024-10-25T12:59:06Z</time>
      </trkpt>
      <trkpt lat="49.08896" lon="1.73239">
        <ele>150</ele>
        <time>2024-10-25T13:00:20Z</time>
      </trkpt>
      <trkpt lat="49.08856" lon="1.73297">
        <ele>156</ele>
        <time>2024-10-25T13:01:33Z</time>
      </trkpt>
      <trkpt lat="49.08844" lon="1.73308">
        <ele>158</ele>
        <time>2024-10-25T13:01:52Z</time>
      </trkpt>
      <trkpt lat="49.08787" lon="1.73385">
        <ele>165</ele>
        <time>2024-10-25T13:03:33Z</time>
      </trkpt>
      <trkpt lat="49.08778" lon="1.73393">
        <ele>165</ele>
        <time>2024-10-25T13:03:47Z</time>
      </trkpt>
      <trkpt lat="49.08752" lon="1.73441">
        <ele>168</ele>
        <time>2024-10-25T13:04:42Z</time>
      </trkpt>
      <trkpt lat="49.08747" lon="1.73446">
        <ele>168</ele>
        <time>2024-10-25T13:04:50Z</time>
      </trkpt>
      <trkpt lat="49.08743" lon="1.73449">
        <ele>168</ele>
        <time>2024-10-25T13:04:56Z</time>
      </trkpt>
      <trkpt lat="49.08734" lon="1.73444">
        <ele>168</ele>
        <time>2024-10-25T13:05:09Z</time>
      </trkpt>
      <trkpt lat="49.08721" lon="1.73445">
        <ele>168</ele>
        <time>2024-10-25T13:05:26Z</time>
      </trkpt>
      <trkpt lat="49.08681" lon="1.73437">
        <ele>167</ele>
        <time>2024-10-25T13:06:20Z</time>
      </trkpt>
      <trkpt lat="49.08668" lon="1.73437">
        <ele>167</ele>
        <time>2024-10-25T13:06:37Z</time>
      </trkpt>
      <trkpt lat="49.08662" lon="1.7344">
        <ele>168</ele>
        <time>2024-10-25T13:06:45Z</time>
      </trkpt>
      <trkpt lat="49.08664" lon="1.73466">
        <ele>170</ele>
        <time>2024-10-25T13:07:08Z</time>
      </trkpt>
      <trkpt lat="49.08662" lon="1.73506">
        <ele>172</ele>
        <time>2024-10-25T13:07:43Z</time>
      </trkpt>
      <trkpt lat="49.08665" lon="1.73546">
        <ele>174</ele>
        <time>2024-10-25T13:08:19Z</time>
      </trkpt>
      <trkpt lat="49.08669" lon="1.73562">
        <ele>175</ele>
        <time>2024-10-25T13:08:34Z</time>
      </trkpt>
      <trkpt lat="49.08671" lon="1.73587">
        <ele>177</ele>
        <time>2024-10-25T13:08:56Z</time>
      </trkpt>
      <trkpt lat="49.08674" lon="1.73595">
        <ele>178</ele>
        <time>2024-10-25T13:09:04Z</time>
      </trkpt>
      <trkpt lat="49.08672" lon="1.73596">
        <ele>178</ele>
        <time>2024-10-25T13:09:06Z</time>
      </trkpt>
      <trkpt lat="49.08671" lon="1.7359">
        <ele>177</ele>
        <time>2024-10-25T13:09:12Z</time>
      </trkpt>
      <trkpt lat="49.08677" lon="1.73591">
        <ele>177</ele>
        <time>2024-10-25T13:09:20Z</time>
      </trkpt>
      <trkpt lat="49.08674" lon="1.73591">
        <ele>177</ele>
        <time>2024-10-25T13:09:24Z</time>
      </trkpt>
      <trkpt lat="49.08677" lon="1.73608">
        <ele>179</ele>
        <time>2024-10-25T13:09:39Z</time>
      </trkpt>
      <trkpt lat="49.08689" lon="1.7365">
        <ele>185</ele>
        <time>2024-10-25T13:10:19Z</time>
      </trkpt>
      <trkpt lat="49.08691" lon="1.73668">
        <ele>187</ele>
        <time>2024-10-25T13:10:35Z</time>
      </trkpt>
      <trkpt lat="49.0869" lon="1.73739">
        <ele>195</ele>
        <time>2024-10-25T13:11:37Z</time>
      </trkpt>
      <trkpt lat="49.0871" lon="1.73799">
        <ele>200</ele>
        <time>2024-10-25T13:12:36Z</time>
      </trkpt>
      <trkpt lat="49.08717" lon="1.7381">
        <ele>201</ele>
        <time>2024-10-25T13:12:50Z</time>
      </trkpt>
      <trkpt lat="49.08746" lon="1.73891">
        <ele>204</ele>
        <time>2024-10-25T13:14:10Z</time>
      </trkpt>
      <trkpt lat="49.08763" lon="1.73964">
        <ele>203</ele>
        <time>2024-10-25T13:15:18Z</time>
      </trkpt>
      <trkpt lat="49.08776" lon="1.73991">
        <ele>202</ele>
        <time>2024-10-25T13:15:47Z</time>
      </trkpt>
      <trkpt lat="49.08787" lon="1.74045">
        <ele>202</ele>
        <time>2024-10-25T13:16:37Z</time>
      </trkpt>
      <trkpt lat="49.08786" lon="1.74055">
        <ele>202</ele>
        <time>2024-10-25T13:16:46Z</time>
      </trkpt>
      <trkpt lat="49.08795" lon="1.74089">
        <ele>202</ele>
        <time>2024-10-25T13:17:18Z</time>
      </trkpt>
      <trkpt lat="49.08796" lon="1.74109">
        <ele>203</ele>
        <time>2024-10-25T13:17:35Z</time>
      </trkpt>
      <trkpt lat="49.08804" lon="1.74117">
        <ele>202</ele>
        <time>2024-10-25T13:17:48Z</time>
      </trkpt>
      <trkpt lat="49.08798" lon="1.74114">
        <ele>203</ele>
        <time>2024-10-25T13:17:56Z</time>
      </trkpt>
      <trkpt lat="49.08809" lon="1.74122">
        <ele>202</ele>
        <time>2024-10-25T13:18:13Z</time>
      </trkpt>
      <trkpt lat="49.0883" lon="1.74148">
        <ele>202</ele>
        <time>2024-10-25T13:18:49Z</time>
      </trkpt>
      <trkpt lat="49.08866" lon="1.74222">
        <ele>204</ele>
        <time>2024-10-25T13:20:09Z</time>
      </trkpt>
      <trkpt lat="49.08874" lon="1.74247">
        <ele>205</ele>
        <time>2024-10-25T13:20:34Z</time>
      </trkpt>
      <trkpt lat="49.08878" lon="1.74253">
        <ele>206</ele>
        <time>2024-10-25T13:20:41Z</time>
      </trkpt>
      <trkpt lat="49.0888" lon="1.74271">
        <ele>206</ele>
        <time>2024-10-25T13:20:57Z</time>
      </trkpt>
      <trkpt lat="49.0891" lon="1.74332">
        <ele>208</ele>
        <time>2024-10-25T13:22:04Z</time>
      </trkpt>
      <trkpt lat="49.08917" lon="1.7435">
        <ele>208</ele>
        <time>2024-10-25T13:22:22Z</time>
      </trkpt>
      <trkpt lat="49.08919" lon="1.74367">
        <ele>207</ele>
        <time>2024-10-25T13:22:37Z</time>
      </trkpt>
      <trkpt lat="49.08934" lon="1.74392">
        <ele>207</ele>
        <time>2024-10-25T13:23:07Z</time>
      </trkpt>
      <trkpt lat="49.08949" lon="1.74441">
        <ele>206</ele>
        <time>2024-10-25T13:23:54Z</time>
      </trkpt>
      <trkpt lat="49.08953" lon="1.74444">
        <ele>207</ele>
        <time>2024-10-25T13:24:00Z</time>
      </trkpt>
      <trkpt lat="49.08962" lon="1.74509">
        <ele>205</ele>
        <time>2024-10-25T13:24:58Z</time>
      </trkpt>
      <trkpt lat="49.08981" lon="1.74538">
        <ele>205</ele>
        <time>2024-10-25T13:25:34Z</time>
      </trkpt>
      <trkpt lat="49.08996" lon="1.74567">
        <ele>205</ele>
        <time>2024-10-25T13:26:06Z</time>
      </trkpt>
      <trkpt lat="49.09004" lon="1.74573">
        <ele>205</ele>
        <time>2024-10-25T13:26:18Z</time>
      </trkpt>
      <trkpt lat="49.09031" lon="1.7461">
        <ele>205</ele>
        <time>2024-10-25T13:27:06Z</time>
      </trkpt>
      <trkpt lat="49.09036" lon="1.74615">
        <ele>205</ele>
        <time>2024-10-25T13:27:14Z</time>
      </trkpt>
      <trkpt lat="49.09038" lon="1.74614">
        <ele>205</ele>
        <time>2024-10-25T13:27:17Z</time>
      </trkpt>
      <trkpt lat="49.09035" lon="1.74623">
        <ele>205</ele>
        <time>2024-10-25T13:27:26Z</time>
      </trkpt>
      <trkpt lat="49.09036" lon="1.74637">
        <ele>206</ele>
        <time>2024-10-25T13:27:38Z</time>
      </trkpt>
      <trkpt lat="49.09046" lon="1.74641">
        <ele>206</ele>
        <time>2024-10-25T13:27:52Z</time>
      </trkpt>
      <trkpt lat="49.09055" lon="1.74655">
        <ele>206</ele>
        <time>2024-10-25T13:28:09Z</time>
      </trkpt>
      <trkpt lat="49.09063" lon="1.74676">
        <ele>207</ele>
        <time>2024-10-25T13:28:30Z</time>
      </trkpt>
      <trkpt lat="49.09064" lon="1.74692">
        <ele>207</ele>
        <time>2024-10-25T13:28:45Z</time>
      </trkpt>
      <trkpt lat="49.09075" lon="1.74717">
        <ele>208</ele>
        <time>2024-10-25T13:29:11Z</time>
      </trkpt>
      <trkpt lat="49.09092" lon="1.74736">
        <ele>208</ele>
        <time>2024-10-25T13:29:39Z</time>
      </trkpt>
      <trkpt lat="49.09097" lon="1.74729">
        <ele>208</ele>
        <time>2024-10-25T13:29:48Z</time>
      </trkpt>
      <trkpt lat="49.09108" lon="1.74735">
        <ele>208</ele>
        <time>2024-10-25T13:30:04Z</time>
      </trkpt>
      <trkpt lat="49.09115" lon="1.74745">
        <ele>208</ele>
        <time>2024-10-25T13:30:16Z</time>
      </trkpt>
      <trkpt lat="49.09148" lon="1.74812">
        <ele>208</ele>
        <time>2024-10-25T13:31:30Z</time>
      </trkpt>
      <trkpt lat="49.09166" lon="1.74861">
        <ele>209</ele>
        <time>2024-10-25T13:32:19Z</time>
      </trkpt>
      <trkpt lat="49.09171" lon="1.74868">
        <ele>209</ele>
        <time>2024-10-25T13:32:28Z</time>
      </trkpt>
      <trkpt lat="49.09174" lon="1.74887">
        <ele>209</ele>
        <time>2024-10-25T13:32:45Z</time>
      </trkpt>
      <trkpt lat="49.09193" lon="1.7493">
        <ele>209</ele>
        <time>2024-10-25T13:33:30Z</time>
      </trkpt>
      <trkpt lat="49.09197" lon="1.74945">
        <ele>209</ele>
        <time>2024-10-25T13:33:44Z</time>
      </trkpt>
      <trkpt lat="49.09204" lon="1.74957">
        <ele>208</ele>
        <time>2024-10-25T13:33:58Z</time>
      </trkpt>
      <trkpt lat="49.09208" lon="1.74975">
        <ele>209</ele>
        <time>2024-10-25T13:34:15Z</time>
      </trkpt>
      <trkpt lat="49.09224" lon="1.75001">
        <ele>208</ele>
        <time>2024-10-25T13:34:46Z</time>
      </trkpt>
      <trkpt lat="49.09237" lon="1.7504">
        <ele>209</ele>
        <time>2024-10-25T13:35:24Z</time>
      </trkpt>
      <trkpt lat="49.09248" lon="1.75061">
        <ele>209</ele>
        <time>2024-10-25T13:35:48Z</time>
      </trkpt>
      <trkpt lat="49.09255" lon="1.75083">
        <ele>209</ele>
        <time>2024-10-25T13:36:09Z</time>
      </trkpt>
      <trkpt lat="49.09264" lon="1.75101">
        <ele>209</ele>
        <time>2024-10-25T13:36:29Z</time>
      </trkpt>
      <trkpt lat="49.09273" lon="1.75107">
        <ele>208</ele>
        <time>2024-10-25T13:36:42Z</time>
      </trkpt>
      <trkpt lat="49.09315" lon="1.75159">
        <ele>208</ele>
        <time>2024-10-25T13:37:54Z</time>
      </trkpt>
      <trkpt lat="49.09326" lon="1.75192">
        <ele>209</ele>
        <time>2024-10-25T13:38:27Z</time>
      </trkpt>
      <trkpt lat="49.09332" lon="1.752">
        <ele>209</ele>
        <time>2024-10-25T13:38:37Z</time>
      </trkpt>
      <trkpt lat="49.09336" lon="1.75198">
        <ele>208</ele>
        <time>2024-10-25T13:38:43Z</time>
      </trkpt>
      <trkpt lat="49.09343" lon="1.75204">
        <ele>208</ele>
        <time>2024-10-25T13:38:54Z</time>
      </trkpt>
      <trkpt lat="49.09353" lon="1.75218">
        <ele>209</ele>
        <time>2024-10-25T13:39:12Z</time>
      </trkpt>
      <trkpt lat="49.09368" lon="1.75253">
        <ele>209</ele>
        <time>2024-10-25T13:39:48Z</time>
      </trkpt>
      <trkpt lat="49.0938" lon="1.75271">
        <ele>209</ele>
        <time>2024-10-25T13:40:11Z</time>
      </trkpt>
      <trkpt lat="49.09389" lon="1.75303">
        <ele>209</ele>
        <time>2024-10-25T13:40:41Z</time>
      </trkpt>
      <trkpt lat="49.09391" lon="1.75301">
        <ele>209</ele>
        <time>2024-10-25T13:40:44Z</time>
      </trkpt>
      <trkpt lat="49.09391" lon="1.7529">
        <ele>209</ele>
        <time>2024-10-25T13:40:54Z</time>
      </trkpt>
      <trkpt lat="49.09394" lon="1.75297">
        <ele>208</ele>
        <time>2024-10-25T13:41:01Z</time>
      </trkpt>
      <trkpt lat="49.09394" lon="1.75295">
        <ele>208</ele>
        <time>2024-10-25T13:41:03Z</time>
      </trkpt>
      <trkpt lat="49.0939" lon="1.75296">
        <ele>209</ele>
        <time>2024-10-25T13:41:08Z</time>
      </trkpt>
      <trkpt lat="49.09391" lon="1.753">
        <ele>209</ele>
        <time>2024-10-25T13:41:12Z</time>
      </trkpt>
      <trkpt lat="49.09396" lon="1.75302">
        <ele>208</ele>
        <time>2024-10-25T13:41:19Z</time>
      </trkpt>
      <trkpt lat="49.09402" lon="1.75314">
        <ele>208</ele>
        <time>2024-10-25T13:41:32Z</time>
      </trkpt>
      <trkpt lat="49.09415" lon="1.7536">
        <ele>208</ele>
        <time>2024-10-25T13:42:16Z</time>
      </trkpt>
      <trkpt lat="49.09424" lon="1.75371">
        <ele>207</ele>
        <time>2024-10-25T13:42:31Z</time>
      </trkpt>
      <trkpt lat="49.09434" lon="1.75393">
        <ele>207</ele>
        <time>2024-10-25T13:42:55Z</time>
      </trkpt>
      <trkpt lat="49.09439" lon="1.75412">
        <ele>207</ele>
        <time>2024-10-25T13:43:13Z</time>
      </trkpt>
      <trkpt lat="49.09456" lon="1.75454">
        <ele>206</ele>
        <time>2024-10-25T13:43:56Z</time>
      </trkpt>
      <trkpt lat="49.09484" lon="1.75543">
        <ele>204</ele>
        <time>2024-10-25T13:45:22Z</time>
      </trkpt>
      <trkpt lat="49.09492" lon="1.75579">
        <ele>203</ele>
        <time>2024-10-25T13:45:55Z</time>
      </trkpt>
      <trkpt lat="49.09494" lon="1.75613">
        <ele>201</ele>
        <time>2024-10-25T13:46:25Z</time>
      </trkpt>
      <trkpt lat="49.09506" lon="1.7567">
        <ele>197</ele>
        <time>2024-10-25T13:47:18Z</time>
      </trkpt>
      <trkpt lat="49.09507" lon="1.75693">
        <ele>195</ele>
        <time>2024-10-25T13:47:38Z</time>
      </trkpt>
      <trkpt lat="49.09502" lon="1.75754">
        <ele>190</ele>
        <time>2024-10-25T13:48:31Z</time>
      </trkpt>
      <trkpt lat="49.09504" lon="1.75807">
        <ele>186</ele>
        <time>2024-10-25T13:49:18Z</time>
      </trkpt>
      <trkpt lat="49.09506" lon="1.75843">
        <ele>183</ele>
        <time>2024-10-25T13:49:49Z</time>
      </trkpt>
      <trkpt lat="49.09514" lon="1.75902">
        <ele>180</ele>
        <time>2024-10-25T13:50:42Z</time>
      </trkpt>
      <trkpt lat="49.09513" lon="1.75932">
        <ele>178</ele>
        <time>2024-10-25T13:51:08Z</time>
      </trkpt>
      <trkpt lat="49.09516" lon="1.7595">
        <ele>176</ele>
        <time>2024-10-25T13:51:25Z</time>
      </trkpt>
      <trkpt lat="49.09515" lon="1.76">
        <ele>172</ele>
        <time>2024-10-25T13:52:08Z</time>
      </trkpt>
      <trkpt lat="49.09521" lon="1.7606">
        <ele>169</ele>
        <time>2024-10-25T13:53:01Z</time>
      </trkpt>
      <trkpt lat="49.09521" lon="1.76114">
        <ele>168</ele>
        <time>2024-10-25T13:53:48Z</time>
      </trkpt>
      <trkpt lat="49.09527" lon="1.76151">
        <ele>167</ele>
        <time>2024-10-25T13:54:22Z</time>
      </trkpt>
      <trkpt lat="49.09538" lon="1.76168">
        <ele>167</ele>
        <time>2024-10-25T13:54:43Z</time>
      </trkpt>
      <trkpt lat="49.09555" lon="1.7622">
        <ele>166</ele>
        <time>2024-10-25T13:55:33Z</time>
      </trkpt>
      <trkpt lat="49.09557" lon="1.7625">
        <ele>167</ele>
        <time>2024-10-25T13:56:00Z</time>
      </trkpt>
      <trkpt lat="49.09553" lon="1.76252">
        <ele>167</ele>
        <time>2024-10-25T13:56:05Z</time>
      </trkpt>
      <trkpt lat="49.09554" lon="1.76254">
        <ele>167</ele>
        <time>2024-10-25T13:56:08Z</time>
      </trkpt>
      <trkpt lat="49.0956" lon="1.76247">
        <ele>166</ele>
        <time>2024-10-25T13:56:18Z</time>
      </trkpt>
      <trkpt lat="49.09557" lon="1.76244">
        <ele>167</ele>
        <time>2024-10-25T13:56:22Z</time>
      </trkpt>
      <trkpt lat="49.09559" lon="1.76254">
        <ele>167</ele>
        <time>2024-10-25T13:56:32Z</time>
      </trkpt>
      <trkpt lat="49.0956" lon="1.7625">
        <ele>166</ele>
        <time>2024-10-25T13:56:35Z</time>
      </trkpt>
      <trkpt lat="49.09561" lon="1.76255">
        <ele>167</ele>
        <time>2024-10-25T13:56:40Z</time>
      </trkpt>
      <trkpt lat="49.09559" lon="1.76251">
        <ele>167</ele>
        <time>2024-10-25T13:56:44Z</time>
      </trkpt>
      <trkpt lat="49.09561" lon="1.76249">
        <ele>166</ele>
        <time>2024-10-25T13:56:47Z</time>
      </trkpt>
      <trkpt lat="49.09563" lon="1.76258">
        <ele>167</ele>
        <time>2024-10-25T13:56:56Z</time>
      </trkpt>
      <trkpt lat="49.0957" lon="1.76304">
        <ele>168</ele>
        <time>2024-10-25T13:57:37Z</time>
      </trkpt>
      <trkpt lat="49.09586" lon="1.76305">
        <ele>167</ele>
        <time>2024-10-25T13:57:58Z</time>
      </trkpt>
      <trkpt lat="49.09586" lon="1.76303">
        <ele>167</ele>
        <time>2024-10-25T13:58:00Z</time>
      </trkpt>
      <trkpt lat="49.09598" lon="1.76298">
        <ele>165</ele>
        <time>2024-10-25T13:58:17Z</time>
      </trkpt>
      <trkpt lat="49.09589" lon="1.76314">
        <ele>167</ele>
        <time>2024-10-25T13:58:35Z</time>
      </trkpt>
      <trkpt lat="49.09587" lon="1.76333">
        <ele>169</ele>
        <time>2024-10-25T13:58:52Z</time>
      </trkpt>
      <trkpt lat="49.09603" lon="1.76364">
        <ele>167</ele>
        <time>2024-10-25T13:59:27Z</time>
      </trkpt>
      <trkpt lat="49.09615" lon="1.76375">
        <ele>166</ele>
        <time>2024-10-25T13:59:45Z</time>
      </trkpt>
      <trkpt lat="49.09621" lon="1.76391">
        <ele>166</ele>
        <time>2024-10-25T14:00:01Z</time>
      </trkpt>
      <trkpt lat="49.09633" lon="1.76451">
        <ele>165</ele>
        <time>2024-10-25T14:00:56Z</time>
      </trkpt>
      <trkpt lat="49.09639" lon="1.76457">
        <ele>165</ele>
        <time>2024-10-25T14:01:06Z</time>
      </trkpt>
      <trkpt lat="49.0964" lon="1.76474">
        <ele>165</ele>
        <time>2024-10-25T14:01:21Z</time>
      </trkpt>
      <trkpt lat="49.09644" lon="1.76477">
        <ele>164</ele>
        <time>2024-10-25T14:01:27Z</time>
      </trkpt>
      <trkpt lat="49.09642" lon="1.76479">
        <ele>165</ele>
        <time>2024-10-25T14:01:30Z</time>
      </trkpt>
      <trkpt lat="49.09645" lon="1.76502">
        <ele>164</ele>
        <time>2024-10-25T14:01:50Z</time>
      </trkpt>
      <trkpt lat="49.09695" lon="1.76713">
        <ele>166</ele>
        <time>2024-10-25T14:05:06Z</time>
      </trkpt>
      <trkpt lat="49.09714" lon="1.76765">
        <ele>163</ele>
        <time>2024-10-25T14:05:58Z</time>
      </trkpt>
      <trkpt lat="49.09724" lon="1.76803">
        <ele>161</ele>
        <time>2024-10-25T14:06:34Z</time>
      </trkpt>
      <trkpt lat="49.09734" lon="1.76827">
        <ele>160</ele>
        <time>2024-10-25T14:06:59Z</time>
      </trkpt>
      <trkpt lat="49.09747" lon="1.76877">
        <ele>160</ele>
        <time>2024-10-25T14:07:46Z</time>
      </trkpt>
      <trkpt lat="49.09754" lon="1.76891">
        <ele>160</ele>
        <time>2024-10-25T14:08:01Z</time>
      </trkpt>
      <trkpt lat="49.09782" lon="1.76926">
        <ele>159</ele>
        <time>2024-10-25T14:08:50Z</time>
      </trkpt>
      <trkpt lat="49.09798" lon="1.76954">
        <ele>160</ele>
        <time>2024-10-25T14:09:22Z</time>
      </trkpt>
      <trkpt lat="49.09802" lon="1.76967">
        <ele>160</ele>
        <time>2024-10-25T14:09:35Z</time>
      </trkpt>
      <trkpt lat="49.09827" lon="1.77012">
        <ele>161</ele>
        <time>2024-10-25T14:10:26Z</time>
      </trkpt>
      <trkpt lat="49.09854" lon="1.77079">
        <ele>162</ele>
        <time>2024-10-25T14:11:35Z</time>
      </trkpt>
      <trkpt lat="49.09865" lon="1.77089">
        <ele>161</ele>
        <time>2024-10-25T14:11:52Z</time>
      </trkpt>
      <trkpt lat="49.09877" lon="1.77107">
        <ele>160</ele>
        <time>2024-10-25T14:12:15Z</time>
      </trkpt>
      <trkpt lat="49.09883" lon="1.77125">
        <ele>160</ele>
        <time>2024-10-25T14:12:32Z</time>
      </trkpt>
      <trkpt lat="49.09901" lon="1.77156">
        <ele>159</ele>
        <time>2024-10-25T14:13:08Z</time>
      </trkpt>
      <trkpt lat="49.09916" lon="1.77171">
        <ele>158</ele>
        <time>2024-10-25T14:13:32Z</time>
      </trkpt>
      <trkpt lat="49.0993" lon="1.77199">
        <ele>157</ele>
        <time>2024-10-25T14:14:03Z</time>
      </trkpt>
      <trkpt lat="49.09951" lon="1.77263">
        <ele>158</ele>
        <time>2024-10-25T14:15:06Z</time>
      </trkpt>
      <trkpt lat="49.09958" lon="1.77275">
        <ele>159</ele>
        <time>2024-10-25T14:15:20Z</time>
      </trkpt>
      <trkpt lat="49.09967" lon="1.77308">
        <ele>160</ele>
        <time>2024-10-25T14:15:51Z</time>
      </trkpt>
      <trkpt lat="49.09977" lon="1.77331">
        <ele>161</ele>
        <time>2024-10-25T14:16:15Z</time>
      </trkpt>
      <trkpt lat="49.09981" lon="1.7735">
        <ele>162</ele>
        <time>2024-10-25T14:16:32Z</time>
      </trkpt>
      <trkpt lat="49.09978" lon="1.77445">
        <ele>165</ele>
        <time>2024-10-25T14:17:56Z</time>
      </trkpt>
      <trkpt lat="49.09982" lon="1.77483">
        <ele>166</ele>
        <time>2024-10-25T14:18:29Z</time>
      </trkpt>
      <trkpt lat="49.09967" lon="1.77504">
        <ele>167</ele>
        <time>2024-10-25T14:18:56Z</time>
      </trkpt>
      <trkpt lat="49.09959" lon="1.77527">
        <ele>168</ele>
        <time>2024-10-25T14:19:19Z</time>
      </trkpt>
      <trkpt lat="49.09976" lon="1.7758">
        <ele>169</ele>
        <time>2024-10-25T14:20:11Z</time>
      </trkpt>
      <trkpt lat="49.09972" lon="1.77593">
        <ele>169</ele>
        <time>2024-10-25T14:20:23Z</time>
      </trkpt>
      <trkpt lat="49.09986" lon="1.77597">
        <ele>168</ele>
        <time>2024-10-25T14:20:42Z</time>
      </trkpt>
    </trkseg>
  </trk>
</gpx>